Time,TemperatureF,DewpointF,PressureIn,WindDirection,WindDirectionDegrees,WindSpeedMPH,WindSpeedGustMPH,Humidity,HourlyPrecipIn,Conditions,Clouds,dailyrainin,SoftwareType,DateUTC
2013-01-03 00:02:00,14.0,10.1,30.31,NE,41,0.0,0.0,84,0.00,,,0.00,Wunderground v.1.15,2013-01-03 05:02:00,
2013-01-03 00:04:00,14.0,10.1,30.31,NE,41,0.0,0.0,84,0.00,,,0.00,Wunderground v.1.15,2013-01-03 05:04:00,
2013-01-03 00:08:00,14.0,10.1,30.31,NE,41,0.0,0.0,84,0.00,,,0.00,Wunderground v.1.15,2013-01-03 05:08:00,
2013-01-03 00:09:00,13.8,9.9,30.31,NE,41,0.0,0.0,84,0.00,,,0.00,Wunderground v.1.15,2013-01-03 05:09:00,
2013-01-03 00:13:00,13.8,9.9,30.31,NE,41,0.0,0.0,84,0.00,,,0.00,Wunderground v.1.15,2013-01-03 05:13:00,
2013-01-03 00:14:00,13.8,9.9,30.31,NE,41,0.0,0.0,84,0.00,,,0.00,Wunderground v.1.15,2013-01-03 05:14:00,
2013-01-03 00:15:00,13.8,9.9,30.31,NE,41,0.0,0.0,84,0.00,,,0.00,Wunderground v.1.15,2013-01-03 05:15:00,
2013-01-03 00:17:00,13.6,9.7,30.31,NE,41,0.0,0.0,84,0.00,,,0.00,Wunderground v.1.15,2013-01-03 05:17:00,
2013-01-03 00:22:00,13.4,9.5,30.31,NE,41,0.0,0.0,84,0.00,,,0.00,Wunderground v.1.15,2013-01-03 05:22:00,
2013-01-03 00:23:00,13.4,9.5,30.31,NE,41,0.0,0.0,84,0.00,,,0.00,Wunderground v.1.15,2013-01-03 05:23:00,
2013-01-03 00:28:00,13.3,9.4,30.31,NE,41,0.0,0.0,84,0.00,,,0.00,Wunderground v.1.15,2013-01-03 05:28:00,
2013-01-03 00:29:00,13.3,9.4,30.31,NE,41,0.0,0.0,84,0.00,,,0.00,Wunderground v.1.15,2013-01-03 05:29:00,
2013-01-03 00:30:00,13.3,9.4,30.30,NE,41,0.0,0.0,84,0.00,,,0.00,Wunderground v.1.15,2013-01-03 05:30:00,
2013-01-03 00:33:00,13.3,9.4,30.30,NE,41,0.0,0.0,84,0.00,,,0.00,Wunderground v.1.15,2013-01-03 05:33:00,
2013-01-03 00:34:00,13.1,9.2,30.30,NE,41,0.0,0.0,84,0.00,,,0.00,Wunderground v.1.15,2013-01-03 05:34:00,
2013-01-03 00:37:00,13.1,9.2,30.30,NE,41,0.0,0.0,84,0.00,,,0.00,Wunderground v.1.15,2013-01-03 05:37:00,
2013-01-03 00:38:00,13.1,9.2,30.30,NE,41,0.0,0.0,84,0.00,,,0.00,Wunderground v.1.15,2013-01-03 05:38:00,
2013-01-03 00:39:00,13.1,9.2,30.30,NE,41,0.0,0.0,84,0.00,,,0.00,Wunderground v.1.15,2013-01-03 05:39:00,
2013-01-03 00:42:00,12.9,9.0,30.30,NE,41,0.0,0.0,84,0.00,,,0.00,Wunderground v.1.15,2013-01-03 05:42:00,
2013-01-03 00:44:00,12.9,9.0,30.30,NE,41,0.0,0.0,84,0.00,,,0.00,Wunderground v.1.15,2013-01-03 05:44:00,
2013-01-03 00:46:00,12.9,9.0,30.31,NE,41,0.0,0.0,84,0.00,,,0.00,Wunderground v.1.15,2013-01-03 05:46:00,
2013-01-03 00:47:00,12.8,8.9,30.31,NE,41,0.0,0.0,84,0.00,,,0.00,Wunderground v.1.15,2013-01-03 05:47:00,
2013-01-03 00:49:00,12.8,8.9,30.31,NE,41,0.0,0.0,84,0.00,,,0.00,Wunderground v.1.15,2013-01-03 05:49:00,
2013-01-03 00:50:00,12.8,8.9,30.31,NE,41,0.0,0.0,84,0.00,,,0.00,Wunderground v.1.15,2013-01-03 05:50:00,
2013-01-03 00:51:00,12.8,9.1,30.31,NE,41,0.0,0.0,85,0.00,,,0.00,Wunderground v.1.15,2013-01-03 05:51:00,
2013-01-03 00:52:00,12.8,9.1,30.31,NE,41,0.0,0.0,85,0.00,,,0.00,Wunderground v.1.15,2013-01-03 05:52:00,
2013-01-03 00:57:00,12.6,8.9,30.31,NE,41,0.0,0.0,85,0.00,,,0.00,Wunderground v.1.15,2013-01-03 05:57:00,
2013-01-03 00:58:00,12.6,8.9,30.31,NE,41,0.0,0.0,85,0.00,,,0.00,Wunderground v.1.15,2013-01-03 05:58:00,
2013-01-03 00:59:00,12.6,8.9,30.31,NE,41,0.0,0.0,85,0.00,,,0.00,Wunderground v.1.15,2013-01-03 05:59:00,
2013-01-03 01:03:00,12.4,8.5,30.30,NE,41,0.0,0.0,84,0.00,,,0.00,Wunderground v.1.15,2013-01-03 06:03:00,
2013-01-03 01:04:00,12.4,8.5,30.30,NE,41,0.0,0.0,84,0.00,,,0.00,Wunderground v.1.15,2013-01-03 06:04:00,
2013-01-03 01:06:00,12.2,8.3,30.30,NE,41,0.0,0.0,84,0.00,,,0.00,Wunderground v.1.15,2013-01-03 06:06:00,
2013-01-03 01:09:00,12.1,8.2,30.30,NE,41,0.0,0.0,84,0.00,,,0.00,Wunderground v.1.15,2013-01-03 06:09:00,
2013-01-03 01:10:00,12.1,8.2,30.30,NE,41,0.0,0.0,84,0.00,,,0.00,Wunderground v.1.15,2013-01-03 06:10:00,
2013-01-03 01:11:00,11.9,8.0,30.30,NE,41,0.0,0.0,84,0.00,,,0.00,Wunderground v.1.15,2013-01-03 06:11:00,
2013-01-03 01:14:00,11.7,7.8,30.29,NE,41,0.0,0.0,84,0.00,,,0.00,Wunderground v.1.15,2013-01-03 06:14:00,
2013-01-03 01:17:00,11.6,8.0,30.29,NE,41,0.0,0.0,85,0.00,,,0.00,Wunderground v.1.15,2013-01-03 06:17:00,
2013-01-03 01:19:00,11.6,8.0,30.29,NE,41,0.0,0.0,85,0.00,,,0.00,Wunderground v.1.15,2013-01-03 06:19:00,
2013-01-03 01:20:00,11.6,8.0,30.29,NE,41,0.0,0.0,85,0.00,,,0.00,Wunderground v.1.15,2013-01-03 06:20:00,
2013-01-03 01:21:00,11.6,8.0,30.29,NE,41,0.0,0.0,85,0.00,,,0.00,Wunderground v.1.15,2013-01-03 06:21:00,
2013-01-03 01:24:00,11.4,7.8,30.29,NE,41,0.0,0.0,85,0.00,,,0.00,Wunderground v.1.15,2013-01-03 06:24:00,
2013-01-03 01:27:00,11.4,7.8,30.29,NE,41,0.0,0.0,85,0.00,,,0.00,Wunderground v.1.15,2013-01-03 06:27:00,
2013-01-03 01:29:00,11.4,7.8,30.29,NE,41,0.0,0.0,85,0.00,,,0.00,Wunderground v.1.15,2013-01-03 06:29:00,
2013-01-03 01:30:00,11.4,7.8,30.29,NE,41,0.0,0.0,85,0.00,,,0.00,Wunderground v.1.15,2013-01-03 06:30:00,
2013-01-03 01:33:00,11.4,7.8,30.29,NE,41,0.0,0.0,85,0.00,,,0.00,Wunderground v.1.15,2013-01-03 06:33:00,
2013-01-03 01:35:00,11.2,7.6,30.29,NE,41,0.0,0.0,85,0.00,,,0.00,Wunderground v.1.15,2013-01-03 06:35:00,
2013-01-03 01:37:00,11.2,7.6,30.29,NE,41,0.0,0.0,85,0.00,,,0.00,Wunderground v.1.15,2013-01-03 06:37:00,
2013-01-03 01:38:00,11.2,7.6,30.29,NE,41,0.0,0.0,85,0.00,,,0.00,Wunderground v.1.15,2013-01-03 06:38:00,
2013-01-03 01:42:00,11.2,7.6,30.29,NE,41,0.0,0.0,85,0.00,,,0.00,Wunderground v.1.15,2013-01-03 06:42:00,
2013-01-03 01:43:00,11.2,7.6,30.29,NE,41,0.0,0.0,85,0.00,,,0.00,Wunderground v.1.15,2013-01-03 06:43:00,
2013-01-03 01:44:00,11.2,7.6,30.29,NE,41,0.0,0.0,85,0.00,,,0.00,Wunderground v.1.15,2013-01-03 06:44:00,
2013-01-03 01:48:00,11.2,7.6,30.29,NE,41,0.0,0.0,85,0.00,,,0.00,Wunderground v.1.15,2013-01-03 06:48:00,
2013-01-03 01:49:00,11.2,7.6,30.29,NE,41,0.0,0.0,85,0.00,,,0.00,Wunderground v.1.15,2013-01-03 06:49:00,
2013-01-03 01:50:00,11.2,7.6,30.29,NE,41,0.0,0.0,85,0.00,,,0.00,Wunderground v.1.15,2013-01-03 06:50:00,
2013-01-03 01:55:00,11.2,7.6,30.29,NE,41,0.0,0.0,85,0.00,,,0.00,Wunderground v.1.15,2013-01-03 06:55:00,
2013-01-03 01:56:00,11.2,7.6,30.29,NE,41,0.0,0.0,85,0.00,,,0.00,Wunderground v.1.15,2013-01-03 06:56:00,
2013-01-03 01:57:00,11.0,7.4,30.29,NE,41,0.0,0.0,85,0.00,,,0.00,Wunderground v.1.15,2013-01-03 06:57:00,
2013-01-03 02:00:00,10.9,7.3,30.29,NE,41,0.0,0.0,85,0.00,,,0.00,Wunderground v.1.15,2013-01-03 07:00:00,
2013-01-03 02:02:00,10.7,7.1,30.29,NE,41,0.0,0.0,85,0.00,,,0.00,Wunderground v.1.15,2013-01-03 07:02:00,
2013-01-03 02:03:00,10.7,7.1,30.29,NE,41,0.0,0.0,85,0.00,,,0.00,Wunderground v.1.15,2013-01-03 07:03:00,
2013-01-03 02:04:00,10.7,7.1,30.29,NE,41,0.0,0.0,85,0.00,,,0.00,Wunderground v.1.15,2013-01-03 07:04:00,
2013-01-03 02:06:00,10.5,6.9,30.29,NE,41,0.0,0.0,85,0.00,,,0.00,Wunderground v.1.15,2013-01-03 07:06:00,
2013-01-03 02:08:00,10.5,6.9,30.29,NE,41,0.0,0.0,85,0.00,,,0.00,Wunderground v.1.15,2013-01-03 07:08:00,
2013-01-03 02:10:00,10.4,6.8,30.29,NE,41,0.0,0.0,85,0.00,,,0.00,Wunderground v.1.15,2013-01-03 07:10:00,
2013-01-03 02:13:00,10.4,6.8,30.29,NE,41,0.0,0.0,85,0.00,,,0.00,Wunderground v.1.15,2013-01-03 07:13:00,
2013-01-03 02:15:00,10.4,6.8,30.29,NE,41,0.0,0.0,85,0.00,,,0.00,Wunderground v.1.15,2013-01-03 07:15:00,
2013-01-03 02:19:00,10.0,6.4,30.29,NE,41,0.0,0.0,85,0.00,,,0.00,Wunderground v.1.15,2013-01-03 07:19:00,
2013-01-03 02:20:00,10.0,6.4,30.29,NE,41,0.0,0.0,85,0.00,,,0.00,Wunderground v.1.15,2013-01-03 07:20:00,
2013-01-03 02:22:00,9.8,6.2,30.29,NE,41,0.0,0.0,85,0.00,,,0.00,Wunderground v.1.15,2013-01-03 07:22:00,
2013-01-03 02:25:00,9.7,6.1,30.29,NE,41,0.0,0.0,85,0.00,,,0.00,Wunderground v.1.15,2013-01-03 07:25:00,
2013-01-03 02:26:00,9.7,6.1,30.29,NE,41,0.0,0.0,85,0.00,,,0.00,Wunderground v.1.15,2013-01-03 07:26:00,
2013-01-03 02:27:00,9.7,6.1,30.29,NE,41,0.0,0.0,85,0.00,,,0.00,Wunderground v.1.15,2013-01-03 07:27:00,
2013-01-03 02:29:00,9.7,6.1,30.29,NE,41,0.0,0.0,85,0.00,,,0.00,Wunderground v.1.15,2013-01-03 07:29:00,
2013-01-03 02:34:00,9.8,6.5,30.28,NE,41,0.0,0.0,86,0.00,,,0.00,Wunderground v.1.15,2013-01-03 07:34:00,
2013-01-03 02:35:00,9.8,6.5,30.28,NE,41,0.0,0.0,86,0.00,,,0.00,Wunderground v.1.15,2013-01-03 07:35:00,
2013-01-03 02:39:00,9.5,5.9,30.28,NE,41,0.0,0.0,85,0.00,,,0.00,Wunderground v.1.15,2013-01-03 07:39:00,
2013-01-03 02:40:00,9.5,5.9,30.28,NE,41,0.0,0.0,85,0.00,,,0.00,Wunderground v.1.15,2013-01-03 07:40:00,
2013-01-03 02:43:00,9.7,6.1,30.28,NE,41,0.0,0.0,85,0.00,,,0.00,Wunderground v.1.15,2013-01-03 07:43:00,
2013-01-03 02:46:00,9.7,6.1,30.28,NE,41,0.0,0.0,85,0.00,,,0.00,Wunderground v.1.15,2013-01-03 07:46:00,
2013-01-03 02:48:00,9.7,6.4,30.28,NE,41,0.0,0.0,86,0.00,,,0.00,Wunderground v.1.15,2013-01-03 07:48:00,
2013-01-03 02:49:00,9.8,6.5,30.28,NE,41,0.0,0.0,86,0.00,,,0.00,Wunderground v.1.15,2013-01-03 07:49:00,
2013-01-03 02:54:00,9.8,6.5,30.28,NE,41,0.0,0.0,86,0.00,,,0.00,Wunderground v.1.15,2013-01-03 07:54:00,
2013-01-03 02:56:00,9.8,6.2,30.28,NE,41,0.0,0.0,85,0.00,,,0.00,Wunderground v.1.15,2013-01-03 07:56:00,
2013-01-03 03:00:00,9.7,6.1,30.28,NE,41,0.0,0.0,85,0.00,,,0.00,Wunderground v.1.15,2013-01-03 08:00:00,
2013-01-03 03:01:00,9.7,6.1,30.28,NE,41,0.0,0.0,85,0.00,,,0.00,Wunderground v.1.15,2013-01-03 08:01:00,
2013-01-03 03:06:00,9.5,5.9,30.28,NE,41,0.0,0.0,85,0.00,,,0.00,Wunderground v.1.15,2013-01-03 08:06:00,
2013-01-03 03:07:00,9.5,5.9,30.28,NE,41,0.0,0.0,85,0.00,,,0.00,Wunderground v.1.15,2013-01-03 08:07:00,
2013-01-03 03:08:00,9.5,5.9,30.28,NE,41,0.0,0.0,85,0.00,,,0.00,Wunderground v.1.15,2013-01-03 08:08:00,
2013-01-03 03:10:00,9.5,5.9,30.28,NE,41,0.0,0.0,85,0.00,,,0.00,Wunderground v.1.15,2013-01-03 08:10:00,
2013-01-03 03:13:00,9.3,5.7,30.28,NE,41,0.0,0.0,85,0.00,,,0.00,Wunderground v.1.15,2013-01-03 08:13:00,
2013-01-03 03:14:00,9.3,5.7,30.28,NE,41,0.0,0.0,85,0.00,,,0.00,Wunderground v.1.15,2013-01-03 08:14:00,
2013-01-03 03:16:00,9.3,5.7,30.29,NE,41,0.0,0.0,85,0.00,,,0.00,Wunderground v.1.15,2013-01-03 08:16:00,
2013-01-03 03:18:00,9.3,5.7,30.29,NE,41,0.0,0.0,85,0.00,,,0.00,Wunderground v.1.15,2013-01-03 08:18:00,
2013-01-03 03:21:00,9.1,5.5,30.29,NE,41,0.0,0.0,85,0.00,,,0.00,Wunderground v.1.15,2013-01-03 08:21:00,
2013-01-03 03:22:00,9.1,5.5,30.29,NE,41,0.0,0.0,85,0.00,,,0.00,Wunderground v.1.15,2013-01-03 08:22:00,
2013-01-03 03:27:00,9.1,5.5,30.29,NE,41,0.0,0.0,85,0.00,,,0.00,Wunderground v.1.15,2013-01-03 08:27:00,
2013-01-03 03:28:00,9.1,5.5,30.29,NE,41,0.0,0.0,85,0.00,,,0.00,Wunderground v.1.15,2013-01-03 08:28:00,
2013-01-03 03:29:00,8.9,5.3,30.29,NE,41,0.0,0.0,85,0.00,,,0.00,Wunderground v.1.15,2013-01-03 08:29:00,
2013-01-03 03:30:00,8.9,5.3,30.29,NE,41,0.0,0.0,85,0.00,,,0.00,Wunderground v.1.15,2013-01-03 08:30:00,
2013-01-03 03:32:00,8.9,5.3,30.29,NE,41,0.0,0.0,85,0.00,,,0.00,Wunderground v.1.15,2013-01-03 08:32:00,
2013-01-03 03:34:00,8.9,5.3,30.29,NE,41,0.0,0.0,85,0.00,,,0.00,Wunderground v.1.15,2013-01-03 08:34:00,
2013-01-03 03:37:00,8.9,5.3,30.29,NE,41,0.0,0.0,85,0.00,,,0.00,Wunderground v.1.15,2013-01-03 08:37:00,
2013-01-03 03:38:00,8.9,5.3,30.29,NE,41,0.0,0.0,85,0.00,,,0.00,Wunderground v.1.15,2013-01-03 08:38:00,
2013-01-03 03:40:00,8.8,5.2,30.29,NE,41,0.0,0.0,85,0.00,,,0.00,Wunderground v.1.15,2013-01-03 08:40:00,
2013-01-03 03:42:00,8.6,5.0,30.29,NE,41,0.0,0.0,85,0.00,,,0.00,Wunderground v.1.15,2013-01-03 08:42:00,
2013-01-03 03:47:00,8.4,4.8,30.29,NE,41,0.0,0.0,85,0.00,,,0.00,Wunderground v.1.15,2013-01-03 08:47:00,
2013-01-03 03:48:00,8.4,4.8,30.29,NE,41,0.0,0.0,85,0.00,,,0.00,Wunderground v.1.15,2013-01-03 08:48:00,
2013-01-03 03:49:00,8.4,4.8,30.29,NE,41,0.0,0.0,85,0.00,,,0.00,Wunderground v.1.15,2013-01-03 08:49:00,
2013-01-03 03:50:00,8.4,4.8,30.29,NE,41,0.0,0.0,85,0.00,,,0.00,Wunderground v.1.15,2013-01-03 08:50:00,
2013-01-03 03:52:00,8.2,4.6,30.29,NE,41,0.0,0.0,85,0.00,,,0.00,Wunderground v.1.15,2013-01-03 08:52:00,
2013-01-03 03:54:00,8.2,4.6,30.29,NE,41,0.0,0.0,85,0.00,,,0.00,Wunderground v.1.15,2013-01-03 08:54:00,
2013-01-03 03:58:00,8.1,4.5,30.29,NE,41,0.0,0.0,85,0.00,,,0.00,Wunderground v.1.15,2013-01-03 08:58:00,
2013-01-03 03:59:00,8.1,4.5,30.29,NE,41,0.0,0.0,85,0.00,,,0.00,Wunderground v.1.15,2013-01-03 08:59:00,
2013-01-03 04:01:00,8.1,4.3,30.29,NE,41,0.0,0.0,84,0.00,,,0.00,Wunderground v.1.15,2013-01-03 09:01:00,
2013-01-03 04:02:00,7.9,4.1,30.29,NE,41,0.0,0.0,84,0.00,,,0.00,Wunderground v.1.15,2013-01-03 09:02:00,
2013-01-03 04:05:00,7.9,4.1,30.29,NE,41,0.0,0.0,84,0.00,,,0.00,Wunderground v.1.15,2013-01-03 09:05:00,
2013-01-03 04:06:00,7.9,4.3,30.29,NE,41,0.0,0.0,85,0.00,,,0.00,Wunderground v.1.15,2013-01-03 09:06:00,
2013-01-03 04:07:00,7.9,4.3,30.29,NE,41,0.0,0.0,85,0.00,,,0.00,Wunderground v.1.15,2013-01-03 09:07:00,
2013-01-03 04:10:00,7.9,4.3,30.29,NE,41,0.0,0.0,85,0.00,,,0.00,Wunderground v.1.15,2013-01-03 09:10:00,
2013-01-03 04:13:00,7.9,4.3,30.29,NE,41,0.0,0.0,85,0.00,,,0.00,Wunderground v.1.15,2013-01-03 09:13:00,
2013-01-03 04:15:00,7.9,4.3,30.29,NE,41,0.0,0.0,85,0.00,,,0.00,Wunderground v.1.15,2013-01-03 09:15:00,
2013-01-03 04:17:00,7.9,4.3,30.29,NE,41,0.0,0.0,85,0.00,,,0.00,Wunderground v.1.15,2013-01-03 09:17:00,
2013-01-03 04:21:00,7.9,4.3,30.29,NE,41,0.0,0.0,85,0.00,,,0.00,Wunderground v.1.15,2013-01-03 09:21:00,
2013-01-03 04:23:00,7.9,4.3,30.29,NE,41,0.0,0.0,85,0.00,,,0.00,Wunderground v.1.15,2013-01-03 09:23:00,
2013-01-03 04:26:00,7.9,4.3,30.29,NE,41,0.0,0.0,85,0.00,,,0.00,Wunderground v.1.15,2013-01-03 09:26:00,
2013-01-03 04:27:00,7.9,4.3,30.29,NE,41,0.0,0.0,85,0.00,,,0.00,Wunderground v.1.15,2013-01-03 09:27:00,
2013-01-03 04:29:00,7.9,4.3,30.29,NE,41,0.0,0.0,85,0.00,,,0.00,Wunderground v.1.15,2013-01-03 09:29:00,
2013-01-03 04:30:00,7.9,4.3,30.30,NE,41,0.0,0.0,85,0.00,,,0.00,Wunderground v.1.15,2013-01-03 09:30:00,
2013-01-03 04:32:00,7.9,4.3,30.30,NE,41,0.0,0.0,85,0.00,,,0.00,Wunderground v.1.15,2013-01-03 09:32:00,
2013-01-03 04:35:00,8.1,4.5,30.30,NE,41,0.0,0.0,85,0.00,,,0.00,Wunderground v.1.15,2013-01-03 09:35:00,
2013-01-03 04:39:00,8.1,4.5,30.30,NE,41,0.0,0.0,85,0.00,,,0.00,Wunderground v.1.15,2013-01-03 09:39:00,
2013-01-03 04:40:00,8.1,4.5,30.30,NE,41,0.0,0.0,85,0.00,,,0.00,Wunderground v.1.15,2013-01-03 09:40:00,
2013-01-03 04:43:00,8.1,4.5,30.30,NE,41,0.0,0.0,85,0.00,,,0.00,Wunderground v.1.15,2013-01-03 09:43:00,
2013-01-03 04:44:00,7.9,4.3,30.30,NE,41,0.0,0.0,85,0.00,,,0.00,Wunderground v.1.15,2013-01-03 09:44:00,
2013-01-03 04:48:00,7.7,3.9,30.30,NE,41,0.0,0.0,84,0.00,,,0.00,Wunderground v.1.15,2013-01-03 09:48:00,
2013-01-03 04:49:00,7.7,3.9,30.30,NE,41,0.0,0.0,84,0.00,,,0.00,Wunderground v.1.15,2013-01-03 09:49:00,
2013-01-03 04:51:00,7.5,3.7,30.30,NE,41,0.0,0.0,84,0.00,,,0.00,Wunderground v.1.15,2013-01-03 09:51:00,
2013-01-03 04:52:00,7.5,3.7,30.30,NE,41,0.0,0.0,84,0.00,,,0.00,Wunderground v.1.15,2013-01-03 09:52:00,
2013-01-03 04:55:00,7.5,3.7,30.30,NE,41,0.0,0.0,84,0.00,,,0.00,Wunderground v.1.15,2013-01-03 09:55:00,
2013-01-03 04:57:00,7.4,3.6,30.30,NE,41,0.0,0.0,84,0.00,,,0.00,Wunderground v.1.15,2013-01-03 09:57:00,
2013-01-03 04:59:00,7.4,3.6,30.30,NE,41,0.0,0.0,84,0.00,,,0.00,Wunderground v.1.15,2013-01-03 09:59:00,
2013-01-03 05:03:00,7.4,3.6,30.30,NE,41,0.0,0.0,84,0.00,,,0.00,Wunderground v.1.15,2013-01-03 10:03:00,
2013-01-03 05:04:00,7.4,3.6,30.30,NE,41,0.0,0.0,84,0.00,,,0.00,Wunderground v.1.15,2013-01-03 10:04:00,
2013-01-03 05:08:00,7.4,3.6,30.30,NE,41,0.0,0.0,84,0.00,,,0.00,Wunderground v.1.15,2013-01-03 10:08:00,
2013-01-03 05:12:00,7.0,3.2,30.30,NE,41,0.0,0.0,84,0.00,,,0.00,Wunderground v.1.15,2013-01-03 10:12:00,
2013-01-03 05:13:00,7.0,3.2,30.30,NE,41,0.0,0.0,84,0.00,,,0.00,Wunderground v.1.15,2013-01-03 10:13:00,
2013-01-03 05:15:00,7.0,3.2,30.30,NE,41,0.0,0.0,84,0.00,,,0.00,Wunderground v.1.15,2013-01-03 10:15:00,
2013-01-03 05:16:00,7.0,3.2,30.30,NE,41,0.0,0.0,84,0.00,,,0.00,Wunderground v.1.15,2013-01-03 10:16:00,
2013-01-03 05:18:00,7.0,3.2,30.30,NE,41,0.0,0.0,84,0.00,,,0.00,Wunderground v.1.15,2013-01-03 10:18:00,
2013-01-03 05:20:00,7.0,3.2,30.30,NE,41,0.0,0.0,84,0.00,,,0.00,Wunderground v.1.15,2013-01-03 10:20:00,
2013-01-03 05:22:00,7.0,3.2,30.30,NE,41,0.0,0.0,84,0.00,,,0.00,Wunderground v.1.15,2013-01-03 10:22:00,
2013-01-03 05:25:00,7.0,3.2,30.30,NE,41,0.0,0.0,84,0.00,,,0.00,Wunderground v.1.15,2013-01-03 10:25:00,
2013-01-03 05:27:00,7.2,3.4,30.30,NE,41,0.0,0.0,84,0.00,,,0.00,Wunderground v.1.15,2013-01-03 10:27:00,
2013-01-03 05:28:00,7.2,3.4,30.30,NE,41,0.0,0.0,84,0.00,,,0.00,Wunderground v.1.15,2013-01-03 10:28:00,
2013-01-03 05:29:00,7.4,3.8,30.30,NE,41,0.0,0.0,85,0.00,,,0.00,Wunderground v.1.15,2013-01-03 10:29:00,
2013-01-03 05:33:00,7.2,3.4,30.30,NE,41,0.0,0.0,84,0.00,,,0.00,Wunderground v.1.15,2013-01-03 10:33:00,
2013-01-03 05:34:00,7.2,3.4,30.30,NE,41,0.0,0.0,84,0.00,,,0.00,Wunderground v.1.15,2013-01-03 10:34:00,
2013-01-03 05:35:00,7.2,3.4,30.30,NE,41,0.0,0.0,84,0.00,,,0.00,Wunderground v.1.15,2013-01-03 10:35:00,
2013-01-03 05:38:00,7.2,3.4,30.30,NE,41,0.0,0.0,84,0.00,,,0.00,Wunderground v.1.15,2013-01-03 10:38:00,
2013-01-03 05:42:00,7.2,3.4,30.30,NE,41,0.0,0.0,84,0.00,,,0.00,Wunderground v.1.15,2013-01-03 10:42:00,
2013-01-03 05:44:00,7.2,3.4,30.30,NE,41,0.0,0.0,84,0.00,,,0.00,Wunderground v.1.15,2013-01-03 10:44:00,
2013-01-03 05:45:00,7.2,3.4,30.31,NE,41,0.0,0.0,84,0.00,,,0.00,Wunderground v.1.15,2013-01-03 10:45:00,
2013-01-03 05:47:00,7.0,3.2,30.31,NE,41,0.0,0.0,84,0.00,,,0.00,Wunderground v.1.15,2013-01-03 10:47:00,
2013-01-03 05:49:00,6.8,3.0,30.31,NE,41,0.0,0.0,84,0.00,,,0.00,Wunderground v.1.15,2013-01-03 10:49:00,
2013-01-03 05:50:00,6.8,3.0,30.31,NE,41,0.0,0.0,84,0.00,,,0.00,Wunderground v.1.15,2013-01-03 10:50:00,
2013-01-03 05:51:00,6.6,2.8,30.31,NE,41,0.0,0.0,84,0.00,,,0.00,Wunderground v.1.15,2013-01-03 10:51:00,
2013-01-03 05:55:00,6.5,2.7,30.31,NE,41,0.0,0.0,84,0.00,,,0.00,Wunderground v.1.15,2013-01-03 10:55:00,
2013-01-03 05:56:00,6.5,2.7,30.31,NE,41,0.0,0.0,84,0.00,,,0.00,Wunderground v.1.15,2013-01-03 10:56:00,
2013-01-03 05:57:00,6.5,2.7,30.31,NE,41,0.0,0.0,84,0.00,,,0.00,Wunderground v.1.15,2013-01-03 10:57:00,
2013-01-03 05:58:00,6.5,2.7,30.31,NE,41,0.0,0.0,84,0.00,,,0.00,Wunderground v.1.15,2013-01-03 10:58:00,
2013-01-03 06:01:00,6.5,2.7,30.31,NE,41,0.0,0.0,84,0.00,,,0.00,Wunderground v.1.15,2013-01-03 11:01:00,
2013-01-03 06:04:00,6.5,2.7,30.31,NE,41,0.0,0.0,84,0.00,,,0.00,Wunderground v.1.15,2013-01-03 11:04:00,
2013-01-03 06:05:00,6.5,2.7,30.31,NE,41,0.0,0.0,84,0.00,,,0.00,Wunderground v.1.15,2013-01-03 11:05:00,
2013-01-03 06:07:00,6.5,2.7,30.31,NE,41,0.0,0.0,84,0.00,,,0.00,Wunderground v.1.15,2013-01-03 11:07:00,
2013-01-03 06:11:00,6.5,2.7,30.31,NE,41,0.0,0.0,84,0.00,,,0.00,Wunderground v.1.15,2013-01-03 11:11:00,
2013-01-03 06:12:00,6.5,2.7,30.31,NE,41,0.0,0.0,84,0.00,,,0.00,Wunderground v.1.15,2013-01-03 11:12:00,
2013-01-03 06:13:00,6.5,2.7,30.31,NE,41,0.0,0.0,84,0.00,,,0.00,Wunderground v.1.15,2013-01-03 11:13:00,
2013-01-03 06:15:00,6.3,2.5,30.32,NE,41,0.0,0.0,84,0.00,,,0.00,Wunderground v.1.15,2013-01-03 11:15:00,
2013-01-03 06:16:00,6.3,2.5,30.32,NE,41,0.0,0.0,84,0.00,,,0.00,Wunderground v.1.15,2013-01-03 11:16:00,
2013-01-03 06:20:00,6.1,2.3,30.32,NE,41,0.0,0.0,84,0.00,,,0.00,Wunderground v.1.15,2013-01-03 11:20:00,
2013-01-03 06:22:00,5.9,2.1,30.32,NE,41,0.0,0.0,84,0.00,,,0.00,Wunderground v.1.15,2013-01-03 11:22:00,
2013-01-03 06:23:00,5.9,1.8,30.32,NE,41,0.0,0.0,83,0.00,,,0.00,Wunderground v.1.15,2013-01-03 11:23:00,
2013-01-03 06:25:00,5.9,2.1,30.32,NE,41,0.0,0.0,84,0.00,,,0.00,Wunderground v.1.15,2013-01-03 11:25:00,
2013-01-03 06:27:00,5.9,2.1,30.32,NE,41,0.0,0.0,84,0.00,,,0.00,Wunderground v.1.15,2013-01-03 11:27:00,
2013-01-03 06:31:00,5.9,2.1,30.32,NE,41,0.0,0.0,84,0.00,,,0.00,Wunderground v.1.15,2013-01-03 11:31:00,
2013-01-03 06:33:00,5.9,2.1,30.32,NE,41,0.0,0.0,84,0.00,,,0.00,Wunderground v.1.15,2013-01-03 11:33:00,
2013-01-03 06:34:00,5.9,2.1,30.32,NE,41,0.0,0.0,84,0.00,,,0.00,Wunderground v.1.15,2013-01-03 11:34:00,
2013-01-03 06:35:00,5.9,2.1,30.32,NE,41,0.0,0.0,84,0.00,,,0.00,Wunderground v.1.15,2013-01-03 11:35:00,
2013-01-03 06:39:00,6.1,2.3,30.32,NE,41,0.0,0.0,84,0.00,,,0.00,Wunderground v.1.15,2013-01-03 11:39:00,
2013-01-03 06:42:00,6.1,2.3,30.32,NE,41,0.0,0.0,84,0.00,,,0.00,Wunderground v.1.15,2013-01-03 11:42:00,
2013-01-03 06:44:00,6.1,2.3,30.32,NE,41,0.0,0.0,84,0.00,,,0.00,Wunderground v.1.15,2013-01-03 11:44:00,
2013-01-03 06:45:00,6.1,2.3,30.32,NE,41,0.0,0.0,84,0.00,,,0.00,Wunderground v.1.15,2013-01-03 11:45:00,
2013-01-03 06:48:00,5.9,2.1,30.32,NE,41,0.0,0.0,84,0.00,,,0.00,Wunderground v.1.15,2013-01-03 11:48:00,
2013-01-03 06:50:00,5.9,2.1,30.32,NE,41,0.0,0.0,84,0.00,,,0.00,Wunderground v.1.15,2013-01-03 11:50:00,
2013-01-03 06:51:00,5.9,2.1,30.32,NE,41,0.0,0.0,84,0.00,,,0.00,Wunderground v.1.15,2013-01-03 11:51:00,
2013-01-03 06:53:00,5.9,2.1,30.32,NE,41,0.0,0.0,84,0.00,,,0.00,Wunderground v.1.15,2013-01-03 11:53:00,
2013-01-03 06:57:00,5.9,2.1,30.32,NE,41,0.0,0.0,84,0.00,,,0.00,Wunderground v.1.15,2013-01-03 11:57:00,
2013-01-03 06:58:00,5.9,2.1,30.32,NE,41,0.0,0.0,84,0.00,,,0.00,Wunderground v.1.15,2013-01-03 11:58:00,
2013-01-03 07:02:00,5.9,2.1,30.33,NE,41,0.0,0.0,84,0.00,,,0.00,Wunderground v.1.15,2013-01-03 12:02:00,
2013-01-03 07:04:00,5.9,2.1,30.33,NE,41,0.0,0.0,84,0.00,,,0.00,Wunderground v.1.15,2013-01-03 12:04:00,
2013-01-03 07:05:00,5.9,2.1,30.33,NE,41,0.0,0.0,84,0.00,,,0.00,Wunderground v.1.15,2013-01-03 12:05:00,
2013-01-03 07:07:00,5.9,2.1,30.33,NE,41,0.0,0.0,84,0.00,,,0.00,Wunderground v.1.15,2013-01-03 12:07:00,
2013-01-03 07:13:00,5.9,1.8,30.33,NE,41,0.0,0.0,83,0.00,,,0.00,Wunderground v.1.15,2013-01-03 12:13:00,
2013-01-03 07:14:00,5.9,2.1,30.33,NE,41,0.0,0.0,84,0.00,,,0.00,Wunderground v.1.15,2013-01-03 12:14:00,
2013-01-03 07:15:00,5.9,2.1,30.33,NE,41,0.0,0.0,84,0.00,,,0.00,Wunderground v.1.15,2013-01-03 12:15:00,
2013-01-03 07:18:00,5.7,1.9,30.33,NE,41,0.0,0.0,84,0.00,,,0.00,Wunderground v.1.15,2013-01-03 12:18:00,
2013-01-03 07:19:00,5.7,1.9,30.33,NE,41,0.0,0.0,84,0.00,,,0.00,Wunderground v.1.15,2013-01-03 12:19:00,
2013-01-03 07:21:00,5.7,1.9,30.33,NE,41,0.0,0.0,84,0.00,,,0.00,Wunderground v.1.15,2013-01-03 12:21:00,
2013-01-03 07:24:00,5.7,1.7,30.33,NE,41,0.0,0.0,83,0.00,,,0.00,Wunderground v.1.15,2013-01-03 12:24:00,
2013-01-03 07:25:00,5.5,1.5,30.33,NE,41,0.0,0.0,83,0.00,,,0.00,Wunderground v.1.15,2013-01-03 12:25:00,
2013-01-03 07:28:00,5.5,1.5,30.33,NE,41,0.0,0.0,83,0.00,,,0.00,Wunderground v.1.15,2013-01-03 12:28:00,
2013-01-03 07:30:00,5.5,1.5,30.33,NE,41,0.0,0.0,83,0.00,,,0.00,Wunderground v.1.15,2013-01-03 12:30:00,
2013-01-03 07:34:00,5.5,1.5,30.33,NE,41,0.0,0.0,83,0.00,,,0.00,Wunderground v.1.15,2013-01-03 12:34:00,
2013-01-03 07:35:00,5.5,1.5,30.33,NE,41,0.0,0.0,83,0.00,,,0.00,Wunderground v.1.15,2013-01-03 12:35:00,
2013-01-03 07:37:00,5.5,1.5,30.33,NE,41,0.0,0.0,83,0.00,,,0.00,Wunderground v.1.15,2013-01-03 12:37:00,
2013-01-03 07:39:00,5.5,1.5,30.33,NE,41,0.0,0.0,83,0.00,,,0.00,Wunderground v.1.15,2013-01-03 12:39:00,
2013-01-03 07:41:00,5.5,1.5,30.33,NE,41,0.0,0.0,83,0.00,,,0.00,Wunderground v.1.15,2013-01-03 12:41:00,
2013-01-03 07:45:00,5.5,1.5,30.33,NE,41,0.0,0.0,83,0.00,,,0.00,Wunderground v.1.15,2013-01-03 12:45:00,
2013-01-03 07:48:00,5.5,1.5,30.33,NE,41,0.0,0.0,83,0.00,,,0.00,Wunderground v.1.15,2013-01-03 12:48:00,
2013-01-03 07:50:00,5.3,1.3,30.33,NE,41,0.0,0.0,83,0.00,,,0.00,Wunderground v.1.15,2013-01-03 12:50:00,
2013-01-03 07:51:00,5.3,1.3,30.33,NE,41,0.0,0.0,83,0.00,,,0.00,Wunderground v.1.15,2013-01-03 12:51:00,
2013-01-03 07:52:00,5.3,1.3,30.33,NE,41,0.0,0.0,83,0.00,,,0.00,Wunderground v.1.15,2013-01-03 12:52:00,
2013-01-03 07:56:00,5.3,1.3,30.33,NE,41,0.0,0.0,83,0.00,,,0.00,Wunderground v.1.15,2013-01-03 12:56:00,
2013-01-03 07:57:00,5.3,1.3,30.33,NE,41,0.0,0.0,83,0.00,,,0.00,Wunderground v.1.15,2013-01-03 12:57:00,
2013-01-03 08:02:00,5.2,1.2,30.33,NE,41,0.0,0.0,83,0.00,,,0.00,Wunderground v.1.15,2013-01-03 13:02:00,
2013-01-03 08:03:00,5.2,1.2,30.33,NE,41,0.0,0.0,83,0.00,,,0.00,Wunderground v.1.15,2013-01-03 13:03:00,
2013-01-03 08:04:00,5.2,1.2,30.33,NE,41,0.0,0.0,83,0.00,,,0.00,Wunderground v.1.15,2013-01-03 13:04:00,
2013-01-03 08:06:00,5.2,1.2,30.33,NE,41,0.0,0.0,83,0.00,,,0.00,Wunderground v.1.15,2013-01-03 13:06:00,
2013-01-03 08:09:00,5.2,1.2,30.33,NE,41,0.0,0.0,83,0.00,,,0.00,Wunderground v.1.15,2013-01-03 13:09:00,
2013-01-03 08:11:00,5.2,1.2,30.33,NE,41,0.0,0.0,83,0.00,,,0.00,Wunderground v.1.15,2013-01-03 13:11:00,
2013-01-03 08:12:00,5.2,1.2,30.33,NE,41,0.0,0.0,83,0.00,,,0.00,Wunderground v.1.15,2013-01-03 13:12:00,
2013-01-03 08:16:00,5.2,1.2,30.34,NE,41,0.0,0.0,83,0.00,,,0.00,Wunderground v.1.15,2013-01-03 13:16:00,
2013-01-03 08:17:00,5.3,1.3,30.34,NE,41,0.0,0.0,83,0.00,,,0.00,Wunderground v.1.15,2013-01-03 13:17:00,
2013-01-03 08:20:00,5.2,1.2,30.34,NE,41,0.0,0.0,83,0.00,,,0.00,Wunderground v.1.15,2013-01-03 13:20:00,
2013-01-03 08:23:00,5.3,1.3,30.34,NE,41,0.0,0.0,83,0.00,,,0.00,Wunderground v.1.15,2013-01-03 13:23:00,
2013-01-03 08:24:00,5.3,1.3,30.34,NE,41,0.0,0.0,83,0.00,,,0.00,Wunderground v.1.15,2013-01-03 13:24:00,
2013-01-03 08:25:00,5.3,1.3,30.34,NE,41,0.0,0.0,83,0.00,,,0.00,Wunderground v.1.15,2013-01-03 13:25:00,
2013-01-03 08:28:00,5.3,1.3,30.34,NE,41,0.0,0.0,83,0.00,,,0.00,Wunderground v.1.15,2013-01-03 13:28:00,
2013-01-03 08:30:00,5.3,1.3,30.34,NE,41,0.0,0.0,83,0.00,,,0.00,Wunderground v.1.15,2013-01-03 13:30:00,
2013-01-03 08:31:00,5.5,1.5,30.34,NE,41,0.0,0.0,83,0.00,,,0.00,Wunderground v.1.15,2013-01-03 13:31:00,
2013-01-03 08:32:00,5.5,1.5,30.34,NE,41,0.0,0.0,83,0.00,,,0.00,Wunderground v.1.15,2013-01-03 13:32:00,
2013-01-03 08:34:00,5.5,1.7,30.34,NE,41,0.0,0.0,84,0.00,,,0.00,Wunderground v.1.15,2013-01-03 13:34:00,
2013-01-03 08:36:00,5.7,1.9,30.34,NE,41,0.0,0.0,84,0.00,,,0.00,Wunderground v.1.15,2013-01-03 13:36:00,
2013-01-03 08:39:00,6.1,2.3,30.34,NE,41,0.0,0.0,84,0.00,,,0.00,Wunderground v.1.15,2013-01-03 13:39:00,
2013-01-03 08:40:00,6.1,2.3,30.34,NE,41,0.0,0.0,84,0.00,,,0.00,Wunderground v.1.15,2013-01-03 13:40:00,
2013-01-03 08:42:00,6.3,2.5,30.34,NE,41,0.0,0.0,84,0.00,,,0.00,Wunderground v.1.15,2013-01-03 13:42:00,
2013-01-03 08:46:00,6.5,2.7,30.34,NE,41,0.0,0.0,84,0.00,,,0.00,Wunderground v.1.15,2013-01-03 13:46:00,
2013-01-03 08:47:00,6.6,2.8,30.34,NE,41,0.0,0.0,84,0.00,,,0.00,Wunderground v.1.15,2013-01-03 13:47:00,
2013-01-03 08:48:00,6.6,2.8,30.34,NE,41,0.0,0.0,84,0.00,,,0.00,Wunderground v.1.15,2013-01-03 13:48:00,
2013-01-03 08:49:00,6.8,3.0,30.34,NE,41,0.0,0.0,84,0.00,,,0.00,Wunderground v.1.15,2013-01-03 13:49:00,
2013-01-03 08:52:00,7.0,3.2,30.34,NE,41,0.0,0.0,84,0.00,,,0.00,Wunderground v.1.15,2013-01-03 13:52:00,
2013-01-03 08:53:00,7.0,3.2,30.34,NE,41,0.0,0.0,84,0.00,,,0.00,Wunderground v.1.15,2013-01-03 13:53:00,
2013-01-03 08:54:00,7.2,3.4,30.34,NE,41,0.0,0.0,84,0.00,,,0.00,Wunderground v.1.15,2013-01-03 13:54:00,
2013-01-03 08:57:00,7.4,3.6,30.34,NE,41,0.0,0.0,84,0.00,,,0.00,Wunderground v.1.15,2013-01-03 13:57:00,
2013-01-03 09:00:00,7.7,3.9,30.34,NE,41,0.0,0.0,84,0.00,,,0.00,Wunderground v.1.15,2013-01-03 14:00:00,
2013-01-03 09:02:00,7.9,4.1,30.34,NE,41,0.0,0.0,84,0.00,,,0.00,Wunderground v.1.15,2013-01-03 14:02:00,
2013-01-03 09:03:00,7.9,4.1,30.34,NE,41,0.0,0.0,84,0.00,,,0.00,Wunderground v.1.15,2013-01-03 14:03:00,
2013-01-03 09:05:00,8.2,4.4,30.34,NE,41,0.0,0.0,84,0.00,,,0.00,Wunderground v.1.15,2013-01-03 14:05:00,
2013-01-03 09:06:00,8.2,4.4,30.34,NE,41,0.0,0.0,84,0.00,,,0.00,Wunderground v.1.15,2013-01-03 14:06:00,
2013-01-03 09:10:00,8.9,5.1,30.34,NE,41,0.0,0.0,84,0.00,,,0.00,Wunderground v.1.15,2013-01-03 14:10:00,
2013-01-03 09:11:00,8.9,5.1,30.34,NE,41,0.0,0.0,84,0.00,,,0.00,Wunderground v.1.15,2013-01-03 14:11:00,
2013-01-03 09:13:00,9.3,5.4,30.34,NE,41,0.0,0.0,84,0.00,,,0.00,Wunderground v.1.15,2013-01-03 14:13:00,
2013-01-03 09:17:00,9.7,5.8,30.34,NE,41,0.0,0.0,84,0.00,,,0.00,Wunderground v.1.15,2013-01-03 14:17:00,
2013-01-03 09:18:00,9.8,5.9,30.34,NE,41,0.0,0.0,84,0.00,,,0.00,Wunderground v.1.15,2013-01-03 14:18:00,
2013-01-03 09:19:00,10.0,6.1,30.34,NE,41,0.0,0.0,84,0.00,,,0.00,Wunderground v.1.15,2013-01-03 14:19:00,
2013-01-03 09:22:00,10.4,6.5,30.34,NE,41,0.0,0.0,84,0.00,,,0.00,Wunderground v.1.15,2013-01-03 14:22:00,
2013-01-03 09:25:00,10.7,6.8,30.34,NE,41,0.0,0.0,84,0.00,,,0.00,Wunderground v.1.15,2013-01-03 14:25:00,
2013-01-03 09:26:00,10.9,7.0,30.34,NE,41,0.0,0.0,84,0.00,,,0.00,Wunderground v.1.15,2013-01-03 14:26:00,
2013-01-03 09:27:00,11.0,7.4,30.34,NE,41,0.0,0.0,85,0.00,,,0.00,Wunderground v.1.15,2013-01-03 14:27:00,
2013-01-03 09:28:00,11.2,7.6,30.34,NE,41,0.0,0.0,85,0.00,,,0.00,Wunderground v.1.15,2013-01-03 14:28:00,
2013-01-03 09:31:00,11.9,8.3,30.34,NE,41,0.0,0.0,85,0.00,,,0.00,Wunderground v.1.15,2013-01-03 14:31:00,
2013-01-03 09:32:00,12.1,8.5,30.34,NE,41,0.0,0.0,85,0.00,,,0.00,Wunderground v.1.15,2013-01-03 14:32:00,
2013-01-03 09:35:00,12.2,8.3,30.34,NE,41,0.0,0.0,84,0.00,,,0.00,Wunderground v.1.15,2013-01-03 14:35:00,
2013-01-03 09:38:00,12.6,8.7,30.34,NE,41,0.0,0.0,84,0.00,,,0.00,Wunderground v.1.15,2013-01-03 14:38:00,
2013-01-03 09:39:00,12.6,8.7,30.34,NE,41,0.0,0.0,84,0.00,,,0.00,Wunderground v.1.15,2013-01-03 14:39:00,
2013-01-03 09:40:00,12.8,8.9,30.34,NE,41,0.0,0.0,84,0.00,,,0.00,Wunderground v.1.15,2013-01-03 14:40:00,
2013-01-03 09:41:00,12.8,8.9,30.34,NE,41,0.0,0.0,84,0.00,,,0.00,Wunderground v.1.15,2013-01-03 14:41:00,
2013-01-03 09:43:00,12.9,9.2,30.34,NE,41,0.0,0.0,85,0.00,,,0.00,Wunderground v.1.15,2013-01-03 14:43:00,
2013-01-03 09:47:00,13.4,9.7,30.35,NE,41,0.0,0.0,85,0.00,,,0.00,Wunderground v.1.15,2013-01-03 14:47:00,
2013-01-03 09:48:00,13.4,9.7,30.35,NE,41,0.0,0.0,85,0.00,,,0.00,Wunderground v.1.15,2013-01-03 14:48:00,
2013-01-03 09:49:00,14.0,10.3,30.35,NE,41,0.0,0.0,85,0.00,,,0.00,Wunderground v.1.15,2013-01-03 14:49:00,
2013-01-03 09:51:00,14.1,10.4,30.35,NE,41,0.0,0.0,85,0.00,,,0.00,Wunderground v.1.15,2013-01-03 14:51:00,
2013-01-03 09:55:00,14.8,11.1,30.35,NE,41,0.0,0.0,85,0.00,,,0.00,Wunderground v.1.15,2013-01-03 14:55:00,
2013-01-03 09:56:00,14.9,11.2,30.35,NE,41,0.0,0.0,85,0.00,,,0.00,Wunderground v.1.15,2013-01-03 14:56:00,
2013-01-03 09:58:00,15.3,11.6,30.35,NE,41,0.0,0.0,85,0.00,,,0.00,Wunderground v.1.15,2013-01-03 14:58:00,
2013-01-03 10:00:00,15.6,11.9,30.34,NE,41,0.0,0.0,85,0.00,,,0.00,Wunderground v.1.15,2013-01-03 15:00:00,
2013-01-03 10:01:00,15.7,12.0,30.34,NE,41,0.0,0.0,85,0.00,,,0.00,Wunderground v.1.15,2013-01-03 15:01:00,
2013-01-03 10:05:00,16.2,12.2,30.34,NE,41,0.0,0.0,84,0.00,,,0.00,Wunderground v.1.15,2013-01-03 15:05:00,
2013-01-03 10:07:00,16.2,12.2,30.34,NE,41,0.0,0.0,84,0.00,,,0.00,Wunderground v.1.15,2013-01-03 15:07:00,
2013-01-03 10:08:00,16.4,12.4,30.34,NE,41,0.0,0.0,84,0.00,,,0.00,Wunderground v.1.15,2013-01-03 15:08:00,
2013-01-03 10:09:00,16.6,12.6,30.34,NE,41,0.0,0.0,84,0.00,,,0.00,Wunderground v.1.15,2013-01-03 15:09:00,
2013-01-03 10:13:00,17.2,13.2,30.34,NE,41,0.0,0.0,84,0.00,,,0.00,Wunderground v.1.15,2013-01-03 15:13:00,
2013-01-03 10:15:00,17.5,13.5,30.34,NE,41,0.0,0.0,84,0.00,,,0.00,Wunderground v.1.15,2013-01-03 15:15:00,
2013-01-03 10:17:00,18.0,13.7,30.34,NE,41,0.0,0.0,83,0.00,,,0.00,Wunderground v.1.15,2013-01-03 15:17:00,
2013-01-03 10:21:00,18.6,14.3,30.34,NE,41,0.0,0.0,83,0.00,,,0.00,Wunderground v.1.15,2013-01-03 15:21:00,
2013-01-03 10:23:00,18.9,14.6,30.34,NE,41,0.0,0.0,83,0.00,,,0.00,Wunderground v.1.15,2013-01-03 15:23:00,
2013-01-03 10:26:00,19.6,15.3,30.34,NE,41,0.0,0.0,83,0.00,,,0.00,Wunderground v.1.15,2013-01-03 15:26:00,
2013-01-03 10:27:00,19.7,15.4,30.34,NE,41,0.0,0.0,83,0.00,,,0.00,Wunderground v.1.15,2013-01-03 15:27:00,
2013-01-03 10:28:00,19.9,15.3,30.34,NE,41,0.0,0.0,82,0.00,,,0.00,Wunderground v.1.15,2013-01-03 15:28:00,
2013-01-03 10:32:00,20.7,15.8,30.34,West,267,0.0,2.0,81,0.00,,,0.00,Wunderground v.1.15,2013-01-03 15:32:00,
2013-01-03 10:33:00,21.0,16.1,30.34,West,268,0.0,2.0,81,0.00,,,0.00,Wunderground v.1.15,2013-01-03 15:33:00,
2013-01-03 10:37:00,22.1,16.6,30.34,WNW,282,1.0,4.0,79,0.00,,,0.00,Wunderground v.1.15,2013-01-03 15:37:00,
2013-01-03 10:38:00,22.3,16.2,30.34,WNW,294,1.0,4.0,77,0.00,,,0.00,Wunderground v.1.15,2013-01-03 15:38:00,
2013-01-03 10:40:00,22.7,16.3,30.34,WNW,288,2.0,2.0,76,0.00,,,0.00,Wunderground v.1.15,2013-01-03 15:40:00,
2013-01-03 10:41:00,22.9,16.5,30.34,WNW,289,2.0,2.0,76,0.00,,,0.00,Wunderground v.1.15,2013-01-03 15:41:00,
2013-01-03 10:45:00,23.7,16.6,30.35,NNW,328,2.0,6.0,74,0.00,,,0.00,Wunderground v.1.15,2013-01-03 15:45:00,
2013-01-03 10:47:00,23.7,16.6,30.35,NW,326,2.0,6.0,74,0.00,,,0.00,Wunderground v.1.15,2013-01-03 15:47:00,
2013-01-03 10:49:00,24.0,16.6,30.35,West,272,2.0,6.0,73,0.00,,,0.00,Wunderground v.1.15,2013-01-03 15:49:00,
2013-01-03 10:50:00,24.1,16.4,30.35,West,272,2.0,2.0,72,0.00,,,0.00,Wunderground v.1.15,2013-01-03 15:50:00,
2013-01-03 10:53:00,24.3,16.6,30.35,West,272,2.0,2.0,72,0.00,,,0.00,Wunderground v.1.15,2013-01-03 15:53:00,
2013-01-03 10:56:00,24.6,16.5,30.35,West,272,1.0,2.0,71,0.00,,,0.00,Wunderground v.1.15,2013-01-03 15:56:00,
2013-01-03 10:58:00,24.6,16.5,30.35,WNW,282,1.0,3.0,71,0.00,,,0.00,Wunderground v.1.15,2013-01-03 15:58:00,
2013-01-03 10:59:00,24.7,16.6,30.35,WNW,288,1.0,3.0,71,0.00,,,0.00,Wunderground v.1.15,2013-01-03 15:59:00,
2013-01-03 11:04:00,24.9,16.2,30.35,West,271,2.0,6.0,69,0.00,,,0.00,Wunderground v.1.15,2013-01-03 16:04:00,
2013-01-03 11:05:00,24.9,16.2,30.35,WSW,254,3.0,6.0,69,0.00,,,0.00,Wunderground v.1.15,2013-01-03 16:05:00,
2013-01-03 11:41:00,26.9,17.4,30.35,WNW,291,3.0,3.0,67,0.00,,,0.00,Wunderground v.1.15,2013-01-03 16:41:00,
2013-01-03 11:42:00,26.9,17.4,30.35,WNW,294,3.0,5.0,67,0.00,,,0.00,Wunderground v.1.15,2013-01-03 16:42:00,
2013-01-03 11:44:00,27.1,17.6,30.35,WNW,292,3.0,6.0,67,0.00,,,0.00,Wunderground v.1.15,2013-01-03 16:44:00,
2013-01-03 11:45:00,27.1,17.6,30.35,WNW,294,3.0,6.0,67,0.00,,,0.00,Wunderground v.1.15,2013-01-03 16:45:00,
2013-01-03 11:47:00,27.1,17.6,30.35,NW,311,3.0,6.0,67,0.00,,,0.00,Wunderground v.1.15,2013-01-03 16:47:00,
2013-01-03 11:48:00,27.2,17.7,30.35,NW,311,3.0,6.0,67,0.00,,,0.00,Wunderground v.1.15,2013-01-03 16:48:00,
2013-01-03 11:55:00,27.4,17.9,30.35,WNW,292,4.0,9.0,67,0.00,,,0.00,Wunderground v.1.15,2013-01-03 16:55:00,
2013-01-03 11:56:00,27.4,17.5,30.35,West,267,4.0,9.0,66,0.00,,,0.00,Wunderground v.1.15,2013-01-03 16:56:00,
2013-01-03 11:58:00,27.4,17.5,30.35,WNW,292,5.0,9.0,66,0.00,,,0.00,Wunderground v.1.15,2013-01-03 16:58:00,
2013-01-03 11:59:00,27.5,17.6,30.35,West,271,5.0,9.0,66,0.00,,,0.00,Wunderground v.1.15,2013-01-03 16:59:00,
2013-01-03 12:01:00,27.5,17.6,30.35,West,275,5.0,8.0,66,0.00,,,0.00,Wunderground v.1.15,2013-01-03 17:01:00,
2013-01-03 12:04:00,27.5,17.6,30.35,WNW,292,5.0,8.0,66,0.00,,,0.00,Wunderground v.1.15,2013-01-03 17:04:00,
2013-01-03 12:06:00,27.7,17.8,30.35,WNW,291,5.0,8.0,66,0.00,,,0.00,Wunderground v.1.15,2013-01-03 17:06:00,
2013-01-03 12:09:00,28.0,18.1,30.35,West,270,5.0,8.0,66,0.00,,,0.00,Wunderground v.1.15,2013-01-03 17:09:00,
2013-01-03 12:11:00,28.0,18.1,30.35,NW,320,5.0,8.0,66,0.00,,,0.00,Wunderground v.1.15,2013-01-03 17:11:00,
2013-01-03 12:14:00,28.0,18.1,30.35,NNW,328,4.0,8.0,66,0.00,,,0.00,Wunderground v.1.15,2013-01-03 17:14:00,
2013-01-03 12:15:00,28.0,18.1,30.35,West,272,4.0,8.0,66,0.00,,,0.00,Wunderground v.1.15,2013-01-03 17:15:00,
2013-01-03 12:17:00,28.0,18.1,30.35,NW,309,5.0,8.0,66,0.00,,,0.00,Wunderground v.1.15,2013-01-03 17:17:00,
2013-01-03 12:20:00,28.1,18.2,30.35,NW,313,5.0,7.0,66,0.00,,,0.00,Wunderground v.1.15,2013-01-03 17:20:00,
2013-01-03 12:22:00,28.1,18.2,30.35,NW,318,5.0,7.0,66,0.00,,,0.00,Wunderground v.1.15,2013-01-03 17:22:00,
2013-01-03 12:23:00,28.1,18.5,30.35,WNW,299,4.0,7.0,67,0.00,,,0.00,Wunderground v.1.15,2013-01-03 17:23:00,
2013-01-03 12:25:00,28.1,18.2,30.35,WSW,257,4.0,7.0,66,0.00,,,0.00,Wunderground v.1.15,2013-01-03 17:25:00,
2013-01-03 12:27:00,28.1,18.2,30.35,NW,308,5.0,9.0,66,0.00,,,0.00,Wunderground v.1.15,2013-01-03 17:27:00,
2013-01-03 12:30:00,28.0,17.7,30.35,West,277,6.0,6.0,65,0.00,,,0.00,Wunderground v.1.15,2013-01-03 17:30:00,
2013-01-03 12:31:00,28.0,17.7,30.35,West,268,6.0,6.0,65,0.00,,,0.00,Wunderground v.1.15,2013-01-03 17:31:00,
2013-01-03 12:34:00,28.0,17.7,30.35,West,265,6.0,6.0,65,0.00,,,0.00,Wunderground v.1.15,2013-01-03 17:34:00,
2013-01-03 12:36:00,28.0,17.7,30.35,WSW,253,6.0,9.0,65,0.00,,,0.00,Wunderground v.1.15,2013-01-03 17:36:00,
2013-01-03 12:39:00,28.3,18.4,30.35,WSW,256,5.0,9.0,66,0.00,,,0.00,Wunderground v.1.15,2013-01-03 17:39:00,
2013-01-03 12:42:00,28.6,18.3,30.35,West,281,4.0,4.0,65,0.00,,,0.00,Wunderground v.1.15,2013-01-03 17:42:00,
2013-01-03 12:44:00,28.7,18.4,30.35,West,277,3.0,6.0,65,0.00,,,0.00,Wunderground v.1.15,2013-01-03 17:44:00,
2013-01-03 12:47:00,28.7,18.4,30.34,WNW,291,3.0,6.0,65,0.00,,,0.00,Wunderground v.1.15,2013-01-03 17:47:00,
2013-01-03 12:49:00,28.9,19.0,30.34,NW,315,3.0,6.0,66,0.00,,,0.00,Wunderground v.1.15,2013-01-03 17:49:00,
2013-01-03 12:56:00,29.0,19.1,30.34,West,260,3.0,6.0,66,0.00,,,0.00,Wunderground v.1.15,2013-01-03 17:56:00,
2013-01-03 12:57:00,29.2,19.2,30.34,West,260,3.0,6.0,66,0.00,,,0.00,Wunderground v.1.15,2013-01-03 17:57:00,
2013-01-03 12:58:00,29.3,19.0,30.34,West,271,3.0,6.0,65,0.00,,,0.00,Wunderground v.1.15,2013-01-03 17:58:00,
2013-01-03 13:02:00,29.6,19.3,30.34,WNW,289,3.0,5.0,65,0.00,,,0.00,Wunderground v.1.15,2013-01-03 18:02:00,
2013-01-03 13:05:00,30.0,19.7,30.34,WNW,295,2.0,5.0,65,0.00,,,0.00,Wunderground v.1.15,2013-01-03 18:05:00,
2013-01-03 13:06:00,30.0,19.7,30.34,NW,305,2.0,10.0,65,0.00,,,0.00,Wunderground v.1.15,2013-01-03 18:06:00,
2013-01-03 13:07:00,30.0,19.3,30.34,WNW,296,3.0,10.0,64,0.00,,,0.00,Wunderground v.1.15,2013-01-03 18:07:00,
2013-01-03 13:13:00,30.2,19.5,30.34,WNW,288,3.0,5.0,64,0.00,,,0.00,Wunderground v.1.15,2013-01-03 18:13:00,
2013-01-03 13:14:00,30.3,19.9,30.34,WNW,287,4.0,5.0,65,0.00,,,0.00,Wunderground v.1.15,2013-01-03 18:14:00,
2013-01-03 13:15:00,30.3,19.9,30.34,West,267,4.0,5.0,65,0.00,,,0.00,Wunderground v.1.15,2013-01-03 18:15:00,
2013-01-03 13:17:00,30.5,19.8,30.34,West,270,4.0,6.0,64,0.00,,,0.00,Wunderground v.1.15,2013-01-03 18:17:00,
2013-01-03 13:19:00,30.6,20.2,30.34,West,270,3.0,6.0,65,0.00,,,0.00,Wunderground v.1.15,2013-01-03 18:19:00,
2013-01-03 13:22:00,30.9,20.1,30.34,WNW,282,3.0,5.0,64,0.00,,,0.00,Wunderground v.1.15,2013-01-03 18:22:00,
2013-01-03 13:23:00,30.9,20.1,30.34,West,278,3.0,5.0,64,0.00,,,0.00,Wunderground v.1.15,2013-01-03 18:23:00,
2013-01-03 13:24:00,31.1,20.7,30.34,West,277,3.0,5.0,65,0.00,,,0.00,Wunderground v.1.15,2013-01-03 18:24:00,
2013-01-03 13:28:00,31.5,20.7,30.34,WNW,295,2.0,7.0,64,0.00,,,0.00,Wunderground v.1.15,2013-01-03 18:28:00,
2013-01-03 13:29:00,31.5,20.7,30.34,WNW,294,2.0,7.0,64,0.00,,,0.00,Wunderground v.1.15,2013-01-03 18:29:00,
2013-01-03 13:31:00,31.7,20.9,30.33,NW,313,2.0,5.0,64,0.00,,,0.00,Wunderground v.1.15,2013-01-03 18:31:00,
2013-01-03 13:35:00,31.8,21.4,30.33,NW,320,2.0,5.0,65,0.00,,,0.00,Wunderground v.1.15,2013-01-03 18:35:00,
2013-01-03 13:36:00,31.8,21.4,30.33,WNW,287,2.0,5.0,65,0.00,,,0.00,Wunderground v.1.15,2013-01-03 18:36:00,
2013-01-03 13:37:00,32.0,21.6,30.33,WNW,288,2.0,5.0,65,0.00,,,0.00,Wunderground v.1.15,2013-01-03 18:37:00,
2013-01-03 13:38:00,32.0,21.2,30.33,WNW,288,2.0,5.0,64,0.00,,,0.00,Wunderground v.1.15,2013-01-03 18:38:00,
2013-01-03 13:42:00,32.0,21.6,30.33,NW,318,3.0,5.0,65,0.00,,,0.00,Wunderground v.1.15,2013-01-03 18:42:00,
2013-01-03 13:43:00,32.0,21.6,30.33,WNW,285,3.0,5.0,65,0.00,,,0.00,Wunderground v.1.15,2013-01-03 18:43:00,
2013-01-03 13:47:00,32.3,22.2,30.32,WSW,258,4.0,5.0,66,0.00,,,0.00,Wunderground v.1.15,2013-01-03 18:47:00,
2013-01-03 13:49:00,32.4,22.3,30.32,SW,232,3.0,5.0,66,0.00,,,0.00,Wunderground v.1.15,2013-01-03 18:49:00,
2013-01-03 13:57:00,33.2,23.1,30.32,SW,227,4.0,5.0,66,0.00,,,0.00,Wunderground v.1.15,2013-01-03 18:57:00,
2013-01-03 14:00:00,33.2,22.7,30.32,WSW,247,3.0,3.0,65,0.00,,,0.00,Wunderground v.1.15,2013-01-03 19:00:00,
2013-01-03 14:02:00,33.3,22.8,30.32,WSW,254,3.0,3.0,65,0.00,,,0.00,Wunderground v.1.15,2013-01-03 19:02:00,
2013-01-03 14:03:00,33.4,22.9,30.32,WSW,256,3.0,3.0,65,0.00,,,0.00,Wunderground v.1.15,2013-01-03 19:03:00,
2013-01-03 14:07:00,33.6,22.7,30.32,SW,233,3.0,4.0,64,0.00,,,0.00,Wunderground v.1.15,2013-01-03 19:07:00,
2013-01-03 14:10:00,33.6,23.1,30.32,West,274,3.0,6.0,65,0.00,,,0.00,Wunderground v.1.15,2013-01-03 19:10:00,
2013-01-03 14:13:00,33.6,23.1,30.32,West,271,3.0,6.0,65,0.00,,,0.00,Wunderground v.1.15,2013-01-03 19:13:00,
2013-01-03 14:14:00,33.7,23.2,30.32,West,271,3.0,6.0,65,0.00,,,0.00,Wunderground v.1.15,2013-01-03 19:14:00,
2013-01-03 14:18:00,33.9,23.4,30.32,West,272,3.0,6.0,65,0.00,,,0.01,Wunderground v.1.15,2013-01-03 19:18:00,
2013-01-03 14:57:00,35.1,24.1,30.32,WNW,282,3.0,5.0,64,0.00,,,0.01,Wunderground v.1.15,2013-01-03 19:57:00,
2013-01-03 14:59:00,35.2,24.2,30.32,West,274,3.0,5.0,64,0.00,,,0.01,Wunderground v.1.15,2013-01-03 19:59:00,
2013-01-03 15:05:00,35.2,24.2,30.33,WNW,282,3.0,7.0,64,0.00,,,0.01,Wunderground v.1.15,2013-01-03 20:05:00,
2013-01-03 15:06:00,35.2,24.2,30.33,WSW,251,3.0,7.0,64,0.00,,,0.01,Wunderground v.1.15,2013-01-03 20:06:00,
2013-01-03 15:09:00,35.1,24.1,30.33,WNW,291,5.0,5.0,64,0.00,,,0.01,Wunderground v.1.15,2013-01-03 20:09:00,
2013-01-03 15:11:00,35.1,24.1,30.33,WNW,284,5.0,5.0,64,0.00,,,0.01,Wunderground v.1.15,2013-01-03 20:11:00,
2013-01-03 15:12:00,35.1,24.1,30.33,WNW,285,4.0,5.0,64,0.00,,,0.01,Wunderground v.1.15,2013-01-03 20:12:00,
2013-01-03 15:13:00,35.1,24.1,30.33,WNW,285,4.0,5.0,64,0.00,,,0.01,Wunderground v.1.15,2013-01-03 20:13:00,
2013-01-03 15:16:00,35.1,24.1,30.34,WSW,241,4.0,6.0,64,0.00,,,0.01,Wunderground v.1.15,2013-01-03 20:16:00,
2013-01-03 15:17:00,35.2,24.6,30.34,WSW,257,4.0,6.0,65,0.00,,,0.01,Wunderground v.1.15,2013-01-03 20:17:00,
2013-01-03 15:19:00,35.2,24.6,30.34,WNW,282,3.0,7.0,65,0.00,,,0.01,Wunderground v.1.15,2013-01-03 20:19:00,
2013-01-03 15:20:00,35.2,24.2,30.34,SW,232,3.0,3.0,64,0.00,,,0.01,Wunderground v.1.15,2013-01-03 20:20:00,
2013-01-03 15:23:00,35.4,24.8,30.34,WSW,239,4.0,5.0,65,0.00,,,0.01,Wunderground v.1.15,2013-01-03 20:23:00,
2013-01-03 15:24:00,35.4,24.8,30.34,SW,236,4.0,5.0,65,0.00,,,0.01,Wunderground v.1.15,2013-01-03 20:24:00,
2013-01-03 15:25:00,35.4,24.8,30.34,WSW,247,4.0,5.0,65,0.00,,,0.01,Wunderground v.1.15,2013-01-03 20:25:00,
2013-01-03 15:28:00,35.7,25.1,30.34,SW,233,4.0,6.0,65,0.00,,,0.01,Wunderground v.1.15,2013-01-03 20:28:00,
2013-01-03 15:33:00,35.7,25.1,30.34,WSW,244,3.0,3.0,65,0.00,,,0.01,Wunderground v.1.15,2013-01-03 20:33:00,
2013-01-03 15:34:00,35.7,25.1,30.34,West,268,3.0,4.0,65,0.00,,,0.01,Wunderground v.1.15,2013-01-03 20:34:00,
2013-01-03 15:39:00,35.4,25.2,30.34,West,277,3.0,8.0,66,0.00,,,0.01,Wunderground v.1.15,2013-01-03 20:39:00,
2013-01-03 15:40:00,35.4,25.2,30.34,West,274,3.0,3.0,66,0.00,,,0.01,Wunderground v.1.15,2013-01-03 20:40:00,
2013-01-03 15:41:00,35.4,25.2,30.34,West,274,3.0,3.0,66,0.00,,,0.01,Wunderground v.1.15,2013-01-03 20:41:00,
2013-01-03 15:44:00,35.4,25.2,30.34,West,263,4.0,6.0,66,0.00,,,0.01,Wunderground v.1.15,2013-01-03 20:44:00,
2013-01-03 15:47:00,35.2,25.3,30.35,WSW,239,3.0,6.0,67,0.00,,,0.01,Wunderground v.1.15,2013-01-03 20:47:00,
2013-01-03 15:48:00,35.2,25.3,30.35,West,263,3.0,6.0,67,0.00,,,0.01,Wunderground v.1.15,2013-01-03 20:48:00,
2013-01-03 15:51:00,34.9,25.0,30.35,WSW,257,4.0,4.0,67,0.00,,,0.01,Wunderground v.1.15,2013-01-03 20:51:00,
2013-01-03 15:52:00,34.8,25.0,30.35,WSW,240,4.0,4.0,67,0.00,,,0.01,Wunderground v.1.15,2013-01-03 20:52:00,
2013-01-03 16:01:00,34.3,24.8,30.35,WSW,253,3.0,3.0,68,0.00,,,0.01,Wunderground v.1.15,2013-01-03 21:01:00,
2013-01-03 16:04:00,34.2,24.7,30.35,WSW,256,3.0,5.0,68,0.00,,,0.01,Wunderground v.1.15,2013-01-03 21:04:00,
2013-01-03 16:07:00,34.0,24.5,30.35,WSW,239,2.0,5.0,68,0.00,,,0.01,Wunderground v.1.15,2013-01-03 21:07:00,
2013-01-03 16:08:00,33.9,24.4,30.35,WNW,284,2.0,8.0,68,0.00,,,0.01,Wunderground v.1.15,2013-01-03 21:08:00,
2013-01-03 16:11:00,33.9,24.4,30.35,West,272,3.0,3.0,68,0.00,,,0.01,Wunderground v.1.15,2013-01-03 21:11:00,
2013-01-03 16:12:00,33.9,24.4,30.35,West,272,2.0,3.0,68,0.00,,,0.01,Wunderground v.1.15,2013-01-03 21:12:00,
2013-01-03 16:15:00,33.7,24.3,30.35,West,277,2.0,4.0,68,0.00,,,0.01,Wunderground v.1.15,2013-01-03 21:15:00,
2013-01-03 16:16:00,33.7,24.3,30.35,WNW,292,3.0,4.0,68,0.00,,,0.01,Wunderground v.1.15,2013-01-03 21:16:00,
2013-01-03 16:20:00,33.7,24.3,30.35,WSW,239,3.0,6.0,68,0.00,,,0.01,Wunderground v.1.15,2013-01-03 21:20:00,
2013-01-03 16:26:00,33.6,24.2,30.35,West,277,3.0,6.0,68,0.00,,,0.01,Wunderground v.1.15,2013-01-03 21:26:00,
2013-01-03 16:28:00,33.6,24.5,30.35,WSW,246,3.0,6.0,69,0.00,,,0.01,Wunderground v.1.15,2013-01-03 21:28:00,
2013-01-03 16:31:00,33.4,24.3,30.35,West,272,3.0,3.0,69,0.00,,,0.01,Wunderground v.1.15,2013-01-03 21:31:00,
2013-01-03 16:34:00,33.4,24.3,30.35,WNW,291,3.0,5.0,69,0.00,,,0.01,Wunderground v.1.15,2013-01-03 21:34:00,
2013-01-03 16:37:00,33.4,24.3,30.35,WNW,296,2.0,5.0,69,0.00,,,0.01,Wunderground v.1.15,2013-01-03 21:37:00,
2013-01-03 16:44:00,33.4,24.3,30.35,WNW,288,2.0,2.0,69,0.00,,,0.01,Wunderground v.1.15,2013-01-03 21:44:00,
2013-01-03 16:45:00,33.4,24.3,30.35,WSW,248,1.0,2.0,69,0.00,,,0.01,Wunderground v.1.15,2013-01-03 21:45:00,
2013-01-03 16:46:00,33.4,24.3,30.35,WSW,248,1.0,2.0,69,0.00,,,0.01,Wunderground v.1.15,2013-01-03 21:46:00,
2013-01-03 16:50:00,33.4,24.0,30.35,WNW,285,2.0,2.0,68,0.00,,,0.01,Wunderground v.1.15,2013-01-03 21:50:00,
2013-01-03 16:51:00,33.4,24.3,30.35,WNW,285,2.0,2.0,69,0.00,,,0.01,Wunderground v.1.15,2013-01-03 21:51:00,
2013-01-03 16:53:00,33.4,24.3,30.35,West,270,1.0,5.0,69,0.00,,,0.01,Wunderground v.1.15,2013-01-03 21:53:00,
2013-01-03 16:54:00,33.4,24.0,30.35,WSW,254,2.0,5.0,68,0.00,,,0.01,Wunderground v.1.15,2013-01-03 21:54:00,
2013-01-03 16:56:00,33.3,23.9,30.35,WSW,244,2.0,5.0,68,0.00,,,0.01,Wunderground v.1.15,2013-01-03 21:56:00,
2013-01-03 16:58:00,33.3,23.9,30.35,West,267,2.0,5.0,68,0.00,,,0.01,Wunderground v.1.15,2013-01-03 21:58:00,
2013-01-03 17:06:00,33.2,24.1,30.36,West,281,2.0,2.0,69,0.00,,,0.01,Wunderground v.1.15,2013-01-03 22:06:00,
2013-01-03 17:07:00,33.2,24.1,30.36,West,281,2.0,2.0,69,0.00,,,0.01,Wunderground v.1.15,2013-01-03 22:07:00,
2013-01-03 17:11:00,33.0,23.9,30.36,West,281,2.0,2.0,69,0.00,,,0.01,Wunderground v.1.15,2013-01-03 22:11:00,
2013-01-03 17:12:00,32.9,23.8,30.36,West,281,2.0,2.0,69,0.00,,,0.01,Wunderground v.1.15,2013-01-03 22:12:00,
2013-01-03 17:17:00,32.7,23.6,30.37,West,281,1.0,2.0,69,0.00,,,0.01,Wunderground v.1.15,2013-01-03 22:17:00,
2013-01-03 17:38:00,31.4,23.1,30.37,WNW,284,1.0,2.0,71,0.00,,,0.01,Wunderground v.1.15,2013-01-03 22:38:00,
2013-01-03 17:40:00,31.2,23.2,30.37,WNW,284,1.0,1.0,72,0.00,,,0.01,Wunderground v.1.15,2013-01-03 22:40:00,
2013-01-03 17:42:00,30.9,22.9,30.37,WNW,284,0.0,1.0,72,0.00,,,0.01,Wunderground v.1.15,2013-01-03 22:42:00,
2013-01-03 17:44:00,30.9,22.9,30.37,WNW,284,0.0,1.0,72,0.00,,,0.01,Wunderground v.1.15,2013-01-03 22:44:00,
2013-01-03 17:47:00,30.8,23.2,30.37,WNW,284,0.0,1.0,73,0.00,,,0.01,Wunderground v.1.15,2013-01-03 22:47:00,
2013-01-03 17:48:00,30.6,23.0,30.37,WNW,284,0.0,1.0,73,0.00,,,0.01,Wunderground v.1.15,2013-01-03 22:48:00,
2013-01-03 17:50:00,30.6,23.0,30.37,West,274,0.0,0.0,73,0.00,,,0.01,Wunderground v.1.15,2013-01-03 22:50:00,
2013-01-03 17:53:00,30.5,22.9,30.37,WNW,282,0.0,5.0,73,0.00,,,0.01,Wunderground v.1.15,2013-01-03 22:53:00,
2013-01-03 17:55:00,30.5,23.2,30.37,WNW,282,1.0,5.0,74,0.00,,,0.01,Wunderground v.1.15,2013-01-03 22:55:00,
2013-01-03 17:56:00,30.5,23.2,30.37,WNW,282,1.0,5.0,74,0.00,,,0.01,Wunderground v.1.15,2013-01-03 22:56:00,
2013-01-03 17:58:00,30.3,23.0,30.37,WNW,282,1.0,5.0,74,0.00,,,0.01,Wunderground v.1.15,2013-01-03 22:58:00,
2013-01-03 18:00:00,30.3,23.0,30.37,West,281,1.0,2.0,74,0.00,,,0.01,Wunderground v.1.15,2013-01-03 23:00:00,
2013-01-03 18:07:00,30.2,22.9,30.37,WNW,282,1.0,3.0,74,0.00,,,0.01,Wunderground v.1.15,2013-01-03 23:07:00,
2013-01-03 18:17:00,29.9,22.6,30.38,WNW,282,0.0,0.0,74,0.00,,,0.01,Wunderground v.1.15,2013-01-03 23:17:00,
2013-01-03 18:18:00,29.9,22.6,30.38,WNW,282,0.0,0.0,74,0.00,,,0.01,Wunderground v.1.15,2013-01-03 23:18:00,
2013-01-03 18:20:00,29.8,22.5,30.38,WNW,282,0.0,0.0,74,0.00,,,0.01,Wunderground v.1.15,2013-01-03 23:20:00,
2013-01-03 18:22:00,29.8,22.8,30.38,WNW,282,0.0,0.0,75,0.00,,,0.01,Wunderground v.1.15,2013-01-03 23:22:00,
2013-01-03 18:27:00,29.5,22.6,30.38,WNW,282,0.0,0.0,75,0.00,,,0.01,Wunderground v.1.15,2013-01-03 23:27:00,
2013-01-03 18:28:00,29.5,22.6,30.38,WNW,282,0.0,0.0,75,0.00,,,0.01,Wunderground v.1.15,2013-01-03 23:28:00,
2013-01-03 18:32:00,29.3,22.4,30.39,WNW,282,0.0,0.0,75,0.00,,,0.01,Wunderground v.1.15,2013-01-03 23:32:00,
2013-01-03 18:33:00,29.3,22.4,30.39,WNW,282,0.0,0.0,75,0.00,,,0.01,Wunderground v.1.15,2013-01-03 23:33:00,
2013-01-03 18:35:00,29.2,22.3,30.39,WNW,282,0.0,0.0,75,0.00,,,0.01,Wunderground v.1.15,2013-01-03 23:35:00,
2013-01-03 18:38:00,29.2,22.6,30.39,WNW,282,0.0,0.0,76,0.00,,,0.01,Wunderground v.1.15,2013-01-03 23:38:00,
2013-01-03 18:39:00,29.0,22.4,30.39,WNW,282,0.0,0.0,76,0.00,,,0.01,Wunderground v.1.15,2013-01-03 23:39:00,
2013-01-03 18:42:00,29.0,22.4,30.39,WNW,282,0.0,0.0,76,0.00,,,0.01,Wunderground v.1.15,2013-01-03 23:42:00,
2013-01-03 18:43:00,29.0,22.4,30.39,WNW,282,0.0,0.0,76,0.00,,,0.01,Wunderground v.1.15,2013-01-03 23:43:00,
2013-01-03 18:44:00,28.9,22.3,30.39,WNW,282,0.0,0.0,76,0.00,,,0.01,Wunderground v.1.15,2013-01-03 23:44:00,
2013-01-03 18:47:00,28.9,22.3,30.39,WNW,282,0.0,0.0,76,0.00,,,0.01,Wunderground v.1.15,2013-01-03 23:47:00,
2013-01-03 18:48:00,28.9,22.6,30.39,WNW,282,0.0,0.0,77,0.00,,,0.01,Wunderground v.1.15,2013-01-03 23:48:00,
2013-01-03 18:52:00,28.9,22.6,30.39,WNW,282,0.0,0.0,77,0.00,,,0.01,Wunderground v.1.15,2013-01-03 23:52:00,
2013-01-03 18:53:00,28.9,22.6,30.39,WNW,282,0.0,0.0,77,0.00,,,0.01,Wunderground v.1.15,2013-01-03 23:53:00,
2013-01-03 18:54:00,28.9,22.6,30.39,WNW,282,0.0,0.0,77,0.00,,,0.01,Wunderground v.1.15,2013-01-03 23:54:00,
2013-01-03 18:57:00,28.9,22.6,30.39,WNW,282,0.0,0.0,77,0.00,,,0.01,Wunderground v.1.15,2013-01-03 23:57:00,
2013-01-03 18:59:00,28.9,22.6,30.39,WNW,282,0.0,0.0,77,0.00,,,0.01,Wunderground v.1.15,2013-01-03 23:59:00,
2013-01-03 19:00:00,28.9,22.6,30.40,WNW,282,0.0,0.0,77,0.00,,,0.01,Wunderground v.1.15,2013-01-04 00:00:00,
2013-01-03 19:01:00,28.9,22.6,30.40,WNW,282,0.0,0.0,77,0.00,,,0.01,Wunderground v.1.15,2013-01-04 00:01:00,
2013-01-03 19:02:00,29.0,22.7,30.40,WNW,282,0.0,0.0,77,0.00,,,0.01,Wunderground v.1.15,2013-01-04 00:02:00,
2013-01-03 19:06:00,29.0,22.7,30.40,WNW,282,0.0,0.0,77,0.00,,,0.01,Wunderground v.1.15,2013-01-04 00:06:00,
2013-01-03 19:09:00,29.0,22.7,30.40,WNW,282,0.0,0.0,77,0.00,,,0.01,Wunderground v.1.15,2013-01-04 00:09:00,
2013-01-03 19:11:00,29.0,22.7,30.40,WNW,282,0.0,0.0,77,0.00,,,0.01,Wunderground v.1.15,2013-01-04 00:11:00,
2013-01-03 19:12:00,29.0,22.7,30.40,WNW,282,0.0,0.0,77,0.00,,,0.01,Wunderground v.1.15,2013-01-04 00:12:00,
2013-01-03 19:13:00,29.0,22.7,30.40,WNW,282,0.0,0.0,77,0.00,,,0.01,Wunderground v.1.15,2013-01-04 00:13:00,
2013-01-03 19:16:00,29.0,22.7,30.40,WNW,282,0.0,1.0,77,0.00,,,0.01,Wunderground v.1.15,2013-01-04 00:16:00,
2013-01-03 19:17:00,29.0,22.7,30.40,WNW,282,0.0,1.0,77,0.00,,,0.01,Wunderground v.1.15,2013-01-04 00:17:00,
2013-01-03 19:18:00,29.0,22.7,30.40,WNW,282,0.0,3.0,77,0.00,,,0.01,Wunderground v.1.15,2013-01-04 00:18:00,
2013-01-03 19:21:00,29.0,22.7,30.40,WNW,282,0.0,0.0,77,0.00,,,0.01,Wunderground v.1.15,2013-01-04 00:21:00,
2013-01-03 19:22:00,29.0,22.7,30.40,WNW,282,0.0,0.0,77,0.00,,,0.01,Wunderground v.1.15,2013-01-04 00:22:00,
2013-01-03 19:25:00,29.0,22.7,30.40,WNW,282,0.0,0.0,77,0.00,,,0.01,Wunderground v.1.15,2013-01-04 00:25:00,
2013-01-03 19:26:00,29.0,22.7,30.40,WNW,282,0.0,0.0,77,0.00,,,0.01,Wunderground v.1.15,2013-01-04 00:26:00,
2013-01-03 19:30:00,28.9,22.6,30.40,WNW,282,0.0,0.0,77,0.00,,,0.01,Wunderground v.1.15,2013-01-04 00:30:00,
2013-01-03 19:36:00,29.0,23.0,30.40,WNW,282,0.0,0.0,78,0.00,,,0.01,Wunderground v.1.15,2013-01-04 00:36:00,
2013-01-03 19:37:00,28.9,22.9,30.40,WNW,282,0.0,0.0,78,0.00,,,0.01,Wunderground v.1.15,2013-01-04 00:37:00,
2013-01-03 19:38:00,28.9,22.9,30.40,WNW,282,0.0,0.0,78,0.00,,,0.01,Wunderground v.1.15,2013-01-04 00:38:00,
2013-01-03 19:43:00,29.2,23.8,30.40,WNW,282,0.0,2.0,80,0.00,,,0.01,Wunderground v.1.15,2013-01-04 00:43:00,
2013-01-03 19:44:00,29.2,23.5,30.40,WNW,282,0.0,2.0,79,0.00,,,0.01,Wunderground v.1.15,2013-01-04 00:44:00,
2013-01-03 19:45:00,29.2,23.5,30.40,WNW,282,0.0,2.0,79,0.00,,,0.01,Wunderground v.1.15,2013-01-04 00:45:00,
2013-01-03 19:47:00,29.0,23.3,30.40,WNW,282,0.0,2.0,79,0.00,,,0.01,Wunderground v.1.15,2013-01-04 00:47:00,
2013-01-03 19:50:00,29.0,23.3,30.40,WNW,282,0.0,0.0,79,0.00,,,0.01,Wunderground v.1.15,2013-01-04 00:50:00,
2013-01-03 20:10:00,28.6,22.6,30.40,WNW,282,0.0,0.0,78,0.00,,,0.01,Wunderground v.1.15,2013-01-04 01:10:00,
2013-01-03 20:11:00,28.6,22.6,30.40,WNW,282,0.0,0.0,78,0.00,,,0.01,Wunderground v.1.15,2013-01-04 01:11:00,
2013-01-03 20:14:00,28.6,22.9,30.40,WNW,282,0.0,0.0,79,0.00,,,0.01,Wunderground v.1.15,2013-01-04 01:14:00,
2013-01-03 20:16:00,28.4,22.7,30.40,WNW,282,0.0,0.0,79,0.00,,,0.01,Wunderground v.1.15,2013-01-04 01:16:00,
2013-01-03 20:17:00,28.4,22.7,30.40,WNW,282,0.0,0.0,79,0.00,,,0.01,Wunderground v.1.15,2013-01-04 01:17:00,
2013-01-03 20:22:00,28.3,22.6,30.40,WNW,282,0.0,0.0,79,0.00,,,0.01,Wunderground v.1.15,2013-01-04 01:22:00,
2013-01-03 20:24:00,28.3,22.6,30.40,WNW,282,0.0,0.0,79,0.00,,,0.01,Wunderground v.1.15,2013-01-04 01:24:00,
2013-01-03 20:25:00,28.3,22.6,30.40,WNW,282,0.0,0.0,79,0.00,,,0.01,Wunderground v.1.15,2013-01-04 01:25:00,
2013-01-03 20:27:00,28.3,22.6,30.40,WNW,282,0.0,0.0,79,0.00,,,0.01,Wunderground v.1.15,2013-01-04 01:27:00,
2013-01-03 20:30:00,28.4,23.0,30.40,West,281,0.0,0.0,80,0.00,,,0.01,Wunderground v.1.15,2013-01-04 01:30:00,
2013-01-03 20:31:00,28.4,23.0,30.40,West,281,0.0,0.0,80,0.00,,,0.01,Wunderground v.1.15,2013-01-04 01:31:00,
2013-01-03 20:35:00,28.4,23.0,30.40,West,281,0.0,0.0,80,0.00,,,0.01,Wunderground v.1.15,2013-01-04 01:35:00,
2013-01-03 20:37:00,28.4,23.0,30.40,West,281,0.0,0.0,80,0.00,,,0.01,Wunderground v.1.15,2013-01-04 01:37:00,
2013-01-03 20:38:00,28.4,23.0,30.40,West,281,0.0,0.0,80,0.00,,,0.01,Wunderground v.1.15,2013-01-04 01:38:00,
2013-01-03 20:42:00,28.4,23.0,30.40,West,281,0.0,2.0,80,0.00,,,0.01,Wunderground v.1.15,2013-01-04 01:42:00,
2013-01-03 20:43:00,28.4,23.0,30.40,West,281,0.0,2.0,80,0.00,,,0.01,Wunderground v.1.15,2013-01-04 01:43:00,
2013-01-03 20:44:00,28.4,23.0,30.40,West,281,0.0,2.0,80,0.00,,,0.01,Wunderground v.1.15,2013-01-04 01:44:00,
2013-01-03 20:45:00,28.4,23.0,30.40,West,281,0.0,2.0,80,0.00,,,0.01,Wunderground v.1.15,2013-01-04 01:45:00,
2013-01-03 20:47:00,28.6,23.2,30.40,West,281,0.0,2.0,80,0.00,,,0.01,Wunderground v.1.15,2013-01-04 01:47:00,
2013-01-03 20:50:00,28.6,23.2,30.40,West,281,0.0,3.0,80,0.00,,,0.01,Wunderground v.1.15,2013-01-04 01:50:00,
2013-01-03 20:52:00,28.6,23.2,30.40,West,281,0.0,3.0,80,0.00,,,0.01,Wunderground v.1.15,2013-01-04 01:52:00,
2013-01-03 20:57:00,28.9,23.5,30.40,West,281,0.0,3.0,80,0.00,,,0.01,Wunderground v.1.15,2013-01-04 01:57:00,
2013-01-03 20:58:00,28.9,23.5,30.40,West,281,0.0,3.0,80,0.00,,,0.01,Wunderground v.1.15,2013-01-04 01:58:00,
2013-01-03 21:01:00,29.0,23.6,30.40,West,281,0.0,5.0,80,0.00,,,0.01,Wunderground v.1.15,2013-01-04 02:01:00,
2013-01-03 21:05:00,29.3,23.9,30.40,West,281,1.0,5.0,80,0.00,,,0.01,Wunderground v.1.15,2013-01-04 02:05:00,
2013-01-03 21:06:00,29.3,23.6,30.40,West,281,1.0,5.0,79,0.00,,,0.01,Wunderground v.1.15,2013-01-04 02:06:00,
2013-01-03 21:07:00,29.3,23.6,30.40,West,281,1.0,5.0,79,0.00,,,0.01,Wunderground v.1.15,2013-01-04 02:07:00,
2013-01-03 21:11:00,29.5,23.8,30.40,West,281,0.0,0.0,79,0.00,,,0.01,Wunderground v.1.15,2013-01-04 02:11:00,
2013-01-03 21:12:00,29.5,23.8,30.40,West,281,0.0,0.0,79,0.00,,,0.01,Wunderground v.1.15,2013-01-04 02:12:00,
2013-01-03 21:18:00,29.6,23.9,30.39,West,281,0.0,0.0,79,0.00,,,0.01,Wunderground v.1.15,2013-01-04 02:18:00,
2013-01-03 21:19:00,29.6,23.9,30.39,West,281,0.0,0.0,79,0.00,,,0.01,Wunderground v.1.15,2013-01-04 02:19:00,
2013-01-03 21:26:00,29.8,24.1,30.39,West,281,0.0,0.0,79,0.00,,,0.01,Wunderground v.1.15,2013-01-04 02:26:00,
2013-01-03 21:28:00,29.8,24.1,30.39,West,281,0.0,0.0,79,0.00,,,0.01,Wunderground v.1.15,2013-01-04 02:28:00,
2013-01-03 21:29:00,29.8,24.1,30.39,West,281,0.0,0.0,79,0.00,,,0.01,Wunderground v.1.15,2013-01-04 02:29:00,
2013-01-03 21:31:00,29.8,24.1,30.39,West,281,0.0,0.0,79,0.00,,,0.01,Wunderground v.1.15,2013-01-04 02:31:00,
2013-01-03 21:34:00,29.8,24.1,30.39,West,281,0.0,0.0,79,0.00,,,0.01,Wunderground v.1.15,2013-01-04 02:34:00,
2013-01-03 21:36:00,29.9,24.2,30.39,West,281,0.0,0.0,79,0.00,,,0.01,Wunderground v.1.15,2013-01-04 02:36:00,
2013-01-03 21:39:00,29.9,24.2,30.39,West,280,0.0,2.0,79,0.00,,,0.01,Wunderground v.1.15,2013-01-04 02:39:00,
2013-01-03 21:40:00,29.9,23.9,30.39,West,280,0.0,0.0,78,0.00,,,0.01,Wunderground v.1.15,2013-01-04 02:40:00,
2013-01-03 21:41:00,29.9,23.9,30.39,West,280,0.0,0.0,78,0.00,,,0.01,Wunderground v.1.15,2013-01-04 02:41:00,
2013-01-03 21:44:00,30.0,24.0,30.39,West,280,0.0,0.0,78,0.00,,,0.01,Wunderground v.1.15,2013-01-04 02:44:00,
2013-01-03 21:47:00,30.0,24.0,30.39,West,280,0.0,0.0,78,0.00,,,0.01,Wunderground v.1.15,2013-01-04 02:47:00,
2013-01-03 21:48:00,30.0,24.0,30.39,West,280,0.0,0.0,78,0.00,,,0.01,Wunderground v.1.15,2013-01-04 02:48:00,
2013-01-03 21:50:00,30.0,24.0,30.39,West,280,0.0,0.0,78,0.00,,,0.01,Wunderground v.1.15,2013-01-04 02:50:00,
2013-01-03 21:52:00,30.2,24.2,30.39,West,280,0.0,0.0,78,0.00,,,0.01,Wunderground v.1.15,2013-01-04 02:52:00,
2013-01-03 21:53:00,30.2,24.2,30.39,West,280,0.0,0.0,78,0.00,,,0.01,Wunderground v.1.15,2013-01-04 02:53:00,
2013-01-03 21:54:00,30.2,24.2,30.39,West,280,0.0,0.0,78,0.00,,,0.01,Wunderground v.1.15,2013-01-04 02:54:00,
2013-01-03 21:55:00,30.2,24.2,30.39,West,280,0.0,1.0,78,0.00,,,0.01,Wunderground v.1.15,2013-01-04 02:55:00,
2013-01-03 22:00:00,30.3,24.0,30.40,West,274,1.0,2.0,77,0.00,,,0.01,Wunderground v.1.15,2013-01-04 03:00:00,
2013-01-03 22:01:00,30.3,24.0,30.40,West,277,1.0,3.0,77,0.00,,,0.01,Wunderground v.1.15,2013-01-04 03:01:00,
2013-01-03 22:06:00,30.5,24.1,30.40,West,280,1.0,3.0,77,0.00,,,0.01,Wunderground v.1.15,2013-01-04 03:06:00,
2013-01-03 22:07:00,30.5,24.1,30.40,West,280,2.0,3.0,77,0.00,,,0.01,Wunderground v.1.15,2013-01-04 03:07:00,
2013-01-03 22:10:00,30.5,23.8,30.40,West,280,1.0,2.0,76,0.00,,,0.01,Wunderground v.1.15,2013-01-04 03:10:00,
2013-01-03 22:12:00,30.6,23.9,30.40,West,271,2.0,3.0,76,0.00,,,0.01,Wunderground v.1.15,2013-01-04 03:12:00,
2013-01-03 22:14:00,30.6,23.9,30.40,West,271,1.0,3.0,76,0.00,,,0.01,Wunderground v.1.15,2013-01-04 03:14:00,
2013-01-03 22:17:00,30.6,23.9,30.39,West,278,1.0,3.0,76,0.00,,,0.01,Wunderground v.1.15,2013-01-04 03:17:00,
2013-01-03 22:18:00,30.8,24.1,30.39,West,278,1.0,3.0,76,0.00,,,0.01,Wunderground v.1.15,2013-01-04 03:18:00,
2013-01-03 22:38:00,30.8,24.1,30.40,WSW,254,1.0,2.0,76,0.00,,,0.01,Wunderground v.1.15,2013-01-04 03:38:00,
2013-01-03 22:40:00,30.8,24.1,30.40,WSW,253,0.0,3.0,76,0.00,,,0.01,Wunderground v.1.15,2013-01-04 03:40:00,
2013-01-03 22:42:00,30.8,24.1,30.40,WSW,239,1.0,5.0,76,0.00,,,0.01,Wunderground v.1.15,2013-01-04 03:42:00,
2013-01-03 22:43:00,30.8,24.1,30.40,WSW,239,1.0,5.0,76,0.00,,,0.01,Wunderground v.1.15,2013-01-04 03:43:00,
2013-01-03 22:46:00,30.8,24.1,30.40,WSW,239,1.0,5.0,76,0.00,,,0.01,Wunderground v.1.15,2013-01-04 03:46:00,
2013-01-03 22:47:00,30.8,24.1,30.40,WSW,239,1.0,5.0,76,0.00,,,0.01,Wunderground v.1.15,2013-01-04 03:47:00,
2013-01-03 22:48:00,30.8,24.1,30.40,WSW,239,1.0,5.0,76,0.00,,,0.01,Wunderground v.1.15,2013-01-04 03:48:00,
2013-01-03 22:52:00,30.8,24.1,30.40,WSW,240,1.0,1.0,76,0.00,,,0.01,Wunderground v.1.15,2013-01-04 03:52:00,
2013-01-03 22:54:00,30.8,24.4,30.40,WSW,240,0.0,2.0,77,0.00,,,0.01,Wunderground v.1.15,2013-01-04 03:54:00,
2013-01-03 22:55:00,30.8,24.4,30.40,WSW,240,0.0,2.0,77,0.00,,,0.01,Wunderground v.1.15,2013-01-04 03:55:00,
2013-01-03 22:59:00,30.8,24.4,30.40,NW,308,0.0,2.0,77,0.00,,,0.01,Wunderground v.1.15,2013-01-04 03:59:00,
2013-01-03 23:00:00,30.8,24.4,30.40,WNW,284,0.0,2.0,77,0.00,,,0.01,Wunderground v.1.15,2013-01-04 04:00:00,
2013-01-03 23:05:00,30.8,24.1,30.40,WNW,284,1.0,3.0,76,0.00,,,0.01,Wunderground v.1.15,2013-01-04 04:05:00,
2013-01-03 23:06:00,30.8,24.1,30.40,WNW,285,1.0,3.0,76,0.00,,,0.01,Wunderground v.1.15,2013-01-04 04:06:00,
2013-01-03 23:07:00,30.8,24.1,30.40,WNW,285,1.0,3.0,76,0.00,,,0.01,Wunderground v.1.15,2013-01-04 04:07:00,
2013-01-03 23:09:00,30.8,24.1,30.40,WNW,285,1.0,3.0,76,0.00,,,0.01,Wunderground v.1.15,2013-01-04 04:09:00,
2013-01-03 23:12:00,30.8,24.1,30.40,WNW,284,0.0,1.0,76,0.00,,,0.01,Wunderground v.1.15,2013-01-04 04:12:00,
2013-01-03 23:17:00,30.8,24.4,30.40,WNW,285,0.0,1.0,77,0.00,,,0.01,Wunderground v.1.15,2013-01-04 04:17:00,
2013-01-03 23:18:00,30.8,24.4,30.40,WNW,285,0.0,1.0,77,0.00,,,0.01,Wunderground v.1.15,2013-01-04 04:18:00,
2013-01-03 23:20:00,30.6,24.2,30.40,WNW,285,0.0,0.0,77,0.00,,,0.01,Wunderground v.1.15,2013-01-04 04:20:00,
2013-01-03 23:23:00,30.6,24.2,30.40,WNW,284,0.0,1.0,77,0.00,,,0.01,Wunderground v.1.15,2013-01-04 04:23:00,
2013-01-03 23:27:00,30.8,24.4,30.40,WSW,253,0.0,1.0,77,0.00,,,0.01,Wunderground v.1.15,2013-01-04 04:27:00,
2013-01-03 23:28:00,30.8,24.1,30.40,WSW,253,1.0,1.0,76,0.00,,,0.01,Wunderground v.1.15,2013-01-04 04:28:00,
2013-01-03 23:29:00,30.8,24.1,30.40,WSW,253,1.0,1.0,76,0.00,,,0.01,Wunderground v.1.15,2013-01-04 04:29:00,
2013-01-03 23:34:00,30.8,24.1,30.40,WNW,294,1.0,3.0,76,0.00,,,0.01,Wunderground v.1.15,2013-01-04 04:34:00,
2013-01-03 23:35:00,30.8,24.1,30.40,West,271,1.0,4.0,76,0.00,,,0.01,Wunderground v.1.15,2013-01-04 04:35:00,
2013-01-03 23:36:00,30.8,24.1,30.40,West,274,2.0,4.0,76,0.00,,,0.01,Wunderground v.1.15,2013-01-04 04:36:00,
2013-01-03 23:40:00,30.9,23.9,30.40,West,271,2.0,10.0,75,0.00,,,0.01,Wunderground v.1.15,2013-01-04 04:40:00,
2013-01-03 23:41:00,30.9,23.9,30.40,WNW,291,3.0,10.0,75,0.00,,,0.01,Wunderground v.1.15,2013-01-04 04:41:00,
2013-01-03 23:43:00,30.9,23.6,30.40,WNW,285,4.0,10.0,74,0.00,,,0.01,Wunderground v.1.15,2013-01-04 04:43:00,
2013-01-03 23:45:00,31.1,23.8,30.41,WSW,251,4.0,10.0,74,0.00,,,0.01,Wunderground v.1.15,2013-01-04 04:45:00,
2013-01-03 23:47:00,31.1,23.8,30.41,WSW,254,4.0,10.0,74,0.00,,,0.01,Wunderground v.1.15,2013-01-04 04:47:00,
2013-01-03 23:49:00,31.1,23.8,30.41,West,271,4.0,10.0,74,0.00,,,0.01,Wunderground v.1.15,2013-01-04 04:49:00,
2013-01-03 23:53:00,31.1,23.8,30.41,West,270,3.0,6.0,74,0.00,,,0.01,Wunderground v.1.15,2013-01-04 04:53:00,
2013-01-03 23:54:00,31.2,23.5,30.41,West,271,4.0,6.0,73,0.00,,,0.01,Wunderground v.1.15,2013-01-04 04:54:00,
2013-01-03 23:58:00,31.2,23.5,30.41,West,278,4.0,6.0,73,0.00,,,0.01,Wunderground v.1.15,2013-01-04 04:58:00,
2013-01-03 23:59:00,31.2,23.5,30.41,West,278,4.0,6.0,73,0.00,,,0.01,Wunderground v.1.15,2013-01-04 04:59:00,